<?xml version="1.0" encoding="UTF-8" standalone="no" ?>
<gpx xmlns="http://www.topografix.com/GPX/1/1" xmlns:xsi="http://www.w3.org/2001/XMLSchema-instance" xsi:schemaLocation="http://www.topografix.com/GPX/1/1 http://www.topografix.com/GPX/1/1/gpx.xsd" version="1.1" creator="VisuGPX - https://www.visugpx.com">
  <metadata>
    <name>BENI - BANSKHARKA (NEPAL)</name>
    <desc><![CDATA[Trek entre DHAULAGIRI et ANNAPURNA ]]></desc>
  </metadata>
  <trk>
    <name><![CDATA[BENI BANKARSKA]]></name>
    <trkseg>
      <trkpt lat="28.37815" lon="83.57599">
        <ele>891.76</ele>
        <time>2013-10-26T07:09:18Z</time>
      </trkpt>
      <trkpt lat="28.37817" lon="83.57599">
        <ele>891.28</ele>
        <time>2013-10-26T07:09:37Z</time>
      </trkpt>
      <trkpt lat="28.37811" lon="83.57603">
        <ele>888.88</ele>
        <time>2013-10-26T07:09:52Z</time>
      </trkpt>
      <trkpt lat="28.37805" lon="83.57604">
        <ele>889.36</ele>
        <time>2013-10-26T07:10:07Z</time>
      </trkpt>
      <trkpt lat="28.37807" lon="83.57604">
        <ele>889.84</ele>
        <time>2013-10-26T07:10:20Z</time>
      </trkpt>
      <trkpt lat="28.37804" lon="83.57608">
        <ele>889.84</ele>
        <time>2013-10-26T07:10:41Z</time>
      </trkpt>
      <trkpt lat="28.37801" lon="83.57608">
        <ele>889.84</ele>
        <time>2013-10-26T07:10:52Z</time>
      </trkpt>
      <trkpt lat="28.37799" lon="83.57608">
        <ele>889.84</ele>
        <time>2013-10-26T07:11:01Z</time>
      </trkpt>
      <trkpt lat="28.37795" lon="83.57609">
        <ele>888.88</ele>
        <time>2013-10-26T07:11:11Z</time>
      </trkpt>
      <trkpt lat="28.37779" lon="83.57616">
        <ele>888.4</ele>
        <time>2013-10-26T07:11:25Z</time>
      </trkpt>
      <trkpt lat="28.37774" lon="83.57616">
        <ele>887.91</ele>
        <time>2013-10-26T07:11:38Z</time>
      </trkpt>
      <trkpt lat="28.37767" lon="83.57619">
        <ele>885.99</ele>
        <time>2013-10-26T07:11:50Z</time>
      </trkpt>
      <trkpt lat="28.37759" lon="83.57622">
        <ele>887.43</ele>
        <time>2013-10-26T07:11:57Z</time>
      </trkpt>
      <trkpt lat="28.37746" lon="83.57628">
        <ele>890.32</ele>
        <time>2013-10-26T07:12:10Z</time>
      </trkpt>
      <trkpt lat="28.37728" lon="83.57635">
        <ele>891.28</ele>
        <time>2013-10-26T07:12:23Z</time>
      </trkpt>
      <trkpt lat="28.37724" lon="83.57638">
        <ele>895.12</ele>
        <time>2013-10-26T07:12:28Z</time>
      </trkpt>
      <trkpt lat="28.37723" lon="83.57638">
        <ele>891.28</ele>
        <time>2013-10-26T07:12:29Z</time>
      </trkpt>
      <trkpt lat="28.37722" lon="83.57639">
        <ele>891.76</ele>
        <time>2013-10-26T07:12:31Z</time>
      </trkpt>
      <trkpt lat="28.37727" lon="83.57647">
        <ele>892.72</ele>
        <time>2013-10-26T07:12:43Z</time>
      </trkpt>
      <trkpt lat="28.37729" lon="83.57648">
        <ele>894.16</ele>
        <time>2013-10-26T07:12:46Z</time>
      </trkpt>
      <trkpt lat="28.37731" lon="83.57654">
        <ele>896.57</ele>
        <time>2013-10-26T07:12:58Z</time>
      </trkpt>
      <trkpt lat="28.3773" lon="83.57659">
        <ele>899.45</ele>
        <time>2013-10-26T07:13:05Z</time>
      </trkpt>
      <trkpt lat="28.37727" lon="83.57676">
        <ele>898.49</ele>
        <time>2013-10-26T07:13:19Z</time>
      </trkpt>
      <trkpt lat="28.37727" lon="83.57677">
        <ele>898.49</ele>
        <time>2013-10-26T07:13:39Z</time>
      </trkpt>
      <trkpt lat="28.37728" lon="83.57678">
        <ele>898.97</ele>
        <time>2013-10-26T07:13:58Z</time>
      </trkpt>
      <trkpt lat="28.37729" lon="83.57676">
        <ele>898.49</ele>
        <time>2013-10-26T07:14:22Z</time>
      </trkpt>
      <trkpt lat="28.37728" lon="83.57676">
        <ele>897.53</ele>
        <time>2013-10-26T07:14:40Z</time>
      </trkpt>
      <trkpt lat="28.37729" lon="83.57677">
        <ele>898.49</ele>
        <time>2013-10-26T07:15:03Z</time>
      </trkpt>
      <trkpt lat="28.37729" lon="83.57678">
        <ele>897.05</ele>
        <time>2013-10-26T07:15:29Z</time>
      </trkpt>
      <trkpt lat="28.37726" lon="83.5767">
        <ele>897.53</ele>
        <time>2013-10-26T07:15:43Z</time>
      </trkpt>
      <trkpt lat="28.37728" lon="83.57674">
        <ele>897.53</ele>
        <time>2013-10-26T07:16:00Z</time>
      </trkpt>
      <trkpt lat="28.37728" lon="83.57674">
        <ele>897.05</ele>
        <time>2013-10-26T07:16:19Z</time>
      </trkpt>
      <trkpt lat="28.37729" lon="83.57675">
        <ele>897.53</ele>
        <time>2013-10-26T07:16:39Z</time>
      </trkpt>
      <trkpt lat="28.3773" lon="83.57674">
        <ele>897.05</ele>
        <time>2013-10-26T07:16:53Z</time>
      </trkpt>
      <trkpt lat="28.37727" lon="83.57676">
        <ele>898.97</ele>
        <time>2013-10-26T07:17:11Z</time>
      </trkpt>
      <trkpt lat="28.37716" lon="83.57679">
        <ele>898.49</ele>
        <time>2013-10-26T07:17:24Z</time>
      </trkpt>
      <trkpt lat="28.37698" lon="83.57683">
        <ele>898.01</ele>
        <time>2013-10-26T07:17:37Z</time>
      </trkpt>
      <trkpt lat="28.37696" lon="83.57683">
        <ele>898.01</ele>
        <time>2013-10-26T07:17:40Z</time>
      </trkpt>
      <trkpt lat="28.37694" lon="83.57684">
        <ele>898.49</ele>
        <time>2013-10-26T07:17:43Z</time>
      </trkpt>
      <trkpt lat="28.37689" lon="83.57685">
        <ele>899.93</ele>
        <time>2013-10-26T07:17:53Z</time>
      </trkpt>
      <trkpt lat="28.37681" lon="83.5769">
        <ele>900.89</ele>
        <time>2013-10-26T07:18:04Z</time>
      </trkpt>
      <trkpt lat="28.37673" lon="83.57697">
        <ele>902.82</ele>
        <time>2013-10-26T07:18:20Z</time>
      </trkpt>
      <trkpt lat="28.37675" lon="83.57703">
        <ele>904.26</ele>
        <time>2013-10-26T07:18:33Z</time>
      </trkpt>
      <trkpt lat="28.37679" lon="83.57713">
        <ele>905.22</ele>
        <time>2013-10-26T07:18:45Z</time>
      </trkpt>
      <trkpt lat="28.37679" lon="83.57718">
        <ele>907.14</ele>
        <time>2013-10-26T07:18:57Z</time>
      </trkpt>
      <trkpt lat="28.37675" lon="83.57712">
        <ele>908.58</ele>
        <time>2013-10-26T07:19:08Z</time>
      </trkpt>
      <trkpt lat="28.37673" lon="83.5771">
        <ele>910.51</ele>
        <time>2013-10-26T07:19:22Z</time>
      </trkpt>
      <trkpt lat="28.3767" lon="83.57711">
        <ele>911.47</ele>
        <time>2013-10-26T07:19:38Z</time>
      </trkpt>
      <trkpt lat="28.37674" lon="83.5772">
        <ele>913.39</ele>
        <time>2013-10-26T07:19:52Z</time>
      </trkpt>
      <trkpt lat="28.37674" lon="83.57721">
        <ele>913.39</ele>
        <time>2013-10-26T07:19:55Z</time>
      </trkpt>
      <trkpt lat="28.37673" lon="83.57721">
        <ele>914.83</ele>
        <time>2013-10-26T07:20:05Z</time>
      </trkpt>
      <trkpt lat="28.37671" lon="83.57722">
        <ele>917.72</ele>
        <time>2013-10-26T07:20:19Z</time>
      </trkpt>
      <trkpt lat="28.37666" lon="83.57719">
        <ele>919.16</ele>
        <time>2013-10-26T07:20:32Z</time>
      </trkpt>
      <trkpt lat="28.37664" lon="83.57727">
        <ele>921.56</ele>
        <time>2013-10-26T07:20:48Z</time>
      </trkpt>
      <trkpt lat="28.37663" lon="83.57732">
        <ele>923.96</ele>
        <time>2013-10-26T07:21:04Z</time>
      </trkpt>
      <trkpt lat="28.37664" lon="83.57738">
        <ele>925.41</ele>
        <time>2013-10-26T07:21:17Z</time>
      </trkpt>
      <trkpt lat="28.37665" lon="83.5774">
        <ele>928.29</ele>
        <time>2013-10-26T07:21:22Z</time>
      </trkpt>
      <trkpt lat="28.37665" lon="83.57744">
        <ele>929.73</ele>
        <time>2013-10-26T07:21:33Z</time>
      </trkpt>
      <trkpt lat="28.37658" lon="83.57744">
        <ele>930.69</ele>
        <time>2013-10-26T07:21:47Z</time>
      </trkpt>
      <trkpt lat="28.37652" lon="83.57742">
        <ele>932.62</ele>
        <time>2013-10-26T07:22:02Z</time>
      </trkpt>
      <trkpt lat="28.37647" lon="83.57748">
        <ele>934.54</ele>
        <time>2013-10-26T07:22:18Z</time>
      </trkpt>
      <trkpt lat="28.37643" lon="83.57745">
        <ele>936.46</ele>
        <time>2013-10-26T07:22:30Z</time>
      </trkpt>
      <trkpt lat="28.37641" lon="83.57744">
        <ele>937.9</ele>
        <time>2013-10-26T07:22:45Z</time>
      </trkpt>
      <trkpt lat="28.37637" lon="83.57746">
        <ele>940.31</ele>
        <time>2013-10-26T07:22:59Z</time>
      </trkpt>
      <trkpt lat="28.37635" lon="83.57749">
        <ele>942.23</ele>
        <time>2013-10-26T07:23:13Z</time>
      </trkpt>
      <trkpt lat="28.37631" lon="83.57746">
        <ele>943.67</ele>
        <time>2013-10-26T07:23:24Z</time>
      </trkpt>
      <trkpt lat="28.37628" lon="83.57748">
        <ele>945.11</ele>
        <time>2013-10-26T07:23:37Z</time>
      </trkpt>
      <trkpt lat="28.37622" lon="83.57744">
        <ele>946.56</ele>
        <time>2013-10-26T07:23:49Z</time>
      </trkpt>
      <trkpt lat="28.37616" lon="83.5774">
        <ele>948.48</ele>
        <time>2013-10-26T07:24:01Z</time>
      </trkpt>
      <trkpt lat="28.37611" lon="83.57739">
        <ele>950.4</ele>
        <time>2013-10-26T07:24:15Z</time>
      </trkpt>
      <trkpt lat="28.37607" lon="83.57738">
        <ele>951.84</ele>
        <time>2013-10-26T07:24:26Z</time>
      </trkpt>
      <trkpt lat="28.37598" lon="83.57736">
        <ele>952.8</ele>
        <time>2013-10-26T07:24:40Z</time>
      </trkpt>
      <trkpt lat="28.37591" lon="83.57736">
        <ele>955.69</ele>
        <time>2013-10-26T07:24:55Z</time>
      </trkpt>
      <trkpt lat="28.37586" lon="83.57735">
        <ele>957.13</ele>
        <time>2013-10-26T07:25:07Z</time>
      </trkpt>
      <trkpt lat="28.37577" lon="83.57731">
        <ele>958.09</ele>
        <time>2013-10-26T07:25:22Z</time>
      </trkpt>
      <trkpt lat="28.37573" lon="83.5773">
        <ele>958.57</ele>
        <time>2013-10-26T07:25:36Z</time>
      </trkpt>
      <trkpt lat="28.37574" lon="83.57732">
        <ele>959.05</ele>
        <time>2013-10-26T07:26:04Z</time>
      </trkpt>
      <trkpt lat="28.37575" lon="83.57732">
        <ele>959.05</ele>
        <time>2013-10-26T07:26:29Z</time>
      </trkpt>
      <trkpt lat="28.37575" lon="83.57734">
        <ele>958.57</ele>
        <time>2013-10-26T07:26:54Z</time>
      </trkpt>
      <trkpt lat="28.37575" lon="83.57733">
        <ele>959.53</ele>
        <time>2013-10-26T07:27:12Z</time>
      </trkpt>
      <trkpt lat="28.37574" lon="83.57733">
        <ele>959.53</ele>
        <time>2013-10-26T07:27:37Z</time>
      </trkpt>
      <trkpt lat="28.37574" lon="83.57734">
        <ele>959.53</ele>
        <time>2013-10-26T07:28:01Z</time>
      </trkpt>
      <trkpt lat="28.37575" lon="83.57735">
        <ele>960.01</ele>
        <time>2013-10-26T07:28:31Z</time>
      </trkpt>
      <trkpt lat="28.37574" lon="83.57738">
        <ele>960.49</ele>
        <time>2013-10-26T07:28:51Z</time>
      </trkpt>
      <trkpt lat="28.37571" lon="83.57738">
        <ele>963.86</ele>
        <time>2013-10-26T07:29:06Z</time>
      </trkpt>
      <trkpt lat="28.37563" lon="83.57734">
        <ele>965.78</ele>
        <time>2013-10-26T07:29:19Z</time>
      </trkpt>
      <trkpt lat="28.37554" lon="83.57733">
        <ele>967.7</ele>
        <time>2013-10-26T07:29:34Z</time>
      </trkpt>
      <trkpt lat="28.37545" lon="83.57727">
        <ele>969.15</ele>
        <time>2013-10-26T07:29:47Z</time>
      </trkpt>
      <trkpt lat="28.37541" lon="83.57724">
        <ele>971.07</ele>
        <time>2013-10-26T07:30:00Z</time>
      </trkpt>
      <trkpt lat="28.37536" lon="83.57728">
        <ele>972.99</ele>
        <time>2013-10-26T07:30:14Z</time>
      </trkpt>
      <trkpt lat="28.37531" lon="83.5773">
        <ele>975.88</ele>
        <time>2013-10-26T07:30:30Z</time>
      </trkpt>
      <trkpt lat="28.37523" lon="83.57734">
        <ele>977.8</ele>
        <time>2013-10-26T07:30:44Z</time>
      </trkpt>
      <trkpt lat="28.37522" lon="83.57745">
        <ele>979.72</ele>
        <time>2013-10-26T07:31:02Z</time>
      </trkpt>
      <trkpt lat="28.37519" lon="83.57753">
        <ele>981.16</ele>
        <time>2013-10-26T07:31:14Z</time>
      </trkpt>
      <trkpt lat="28.3752" lon="83.57755">
        <ele>983.09</ele>
        <time>2013-10-26T07:31:29Z</time>
      </trkpt>
      <trkpt lat="28.37516" lon="83.57749">
        <ele>985.49</ele>
        <time>2013-10-26T07:31:45Z</time>
      </trkpt>
      <trkpt lat="28.37514" lon="83.57746">
        <ele>985.97</ele>
        <time>2013-10-26T07:32:02Z</time>
      </trkpt>
      <trkpt lat="28.37511" lon="83.57751">
        <ele>987.41</ele>
        <time>2013-10-26T07:32:20Z</time>
      </trkpt>
      <trkpt lat="28.37511" lon="83.57756">
        <ele>987.89</ele>
        <time>2013-10-26T07:32:36Z</time>
      </trkpt>
      <trkpt lat="28.37512" lon="83.57757">
        <ele>989.81</ele>
        <time>2013-10-26T07:32:52Z</time>
      </trkpt>
      <trkpt lat="28.37516" lon="83.57763">
        <ele>991.74</ele>
        <time>2013-10-26T07:33:06Z</time>
      </trkpt>
      <trkpt lat="28.37518" lon="83.57764">
        <ele>992.22</ele>
        <time>2013-10-26T07:33:29Z</time>
      </trkpt>
      <trkpt lat="28.37518" lon="83.57765">
        <ele>992.7</ele>
        <time>2013-10-26T07:33:45Z</time>
      </trkpt>
      <trkpt lat="28.37517" lon="83.57765">
        <ele>991.74</ele>
        <time>2013-10-26T07:34:08Z</time>
      </trkpt>
      <trkpt lat="28.37512" lon="83.57765">
        <ele>994.14</ele>
        <time>2013-10-26T07:34:27Z</time>
      </trkpt>
      <trkpt lat="28.3751" lon="83.57763">
        <ele>995.58</ele>
        <time>2013-10-26T07:34:42Z</time>
      </trkpt>
      <trkpt lat="28.37506" lon="83.57762">
        <ele>998.47</ele>
        <time>2013-10-26T07:34:54Z</time>
      </trkpt>
      <trkpt lat="28.37503" lon="83.57761">
        <ele>999.91</ele>
        <time>2013-10-26T07:35:07Z</time>
      </trkpt>
      <trkpt lat="28.37499" lon="83.57758">
        <ele>1000.39</ele>
        <time>2013-10-26T07:35:19Z</time>
      </trkpt>
      <trkpt lat="28.37494" lon="83.57758">
        <ele>1002.79</ele>
        <time>2013-10-26T07:35:32Z</time>
      </trkpt>
      <trkpt lat="28.37496" lon="83.57764">
        <ele>1005.2</ele>
        <time>2013-10-26T07:35:46Z</time>
      </trkpt>
      <trkpt lat="28.37496" lon="83.57765">
        <ele>1005.68</ele>
        <time>2013-10-26T07:36:05Z</time>
      </trkpt>
      <trkpt lat="28.37497" lon="83.57768">
        <ele>1006.64</ele>
        <time>2013-10-26T07:36:17Z</time>
      </trkpt>
      <trkpt lat="28.37497" lon="83.5777">
        <ele>1010.48</ele>
        <time>2013-10-26T07:36:23Z</time>
      </trkpt>
      <trkpt lat="28.37497" lon="83.5777">
        <ele>1006.16</ele>
        <time>2013-10-26T07:36:24Z</time>
      </trkpt>
      <trkpt lat="28.37497" lon="83.57771">
        <ele>1010.96</ele>
        <time>2013-10-26T07:36:25Z</time>
      </trkpt>
      <trkpt lat="28.375" lon="83.57779">
        <ele>1012.41</ele>
        <time>2013-10-26T07:36:40Z</time>
      </trkpt>
      <trkpt lat="28.375" lon="83.57779">
        <ele>1009.04</ele>
        <time>2013-10-26T07:36:41Z</time>
      </trkpt>
      <trkpt lat="28.37501" lon="83.5778">
        <ele>1014.33</ele>
        <time>2013-10-26T07:36:42Z</time>
      </trkpt>
      <trkpt lat="28.37502" lon="83.57783">
        <ele>1012.41</ele>
        <time>2013-10-26T07:36:58Z</time>
      </trkpt>
      <trkpt lat="28.37503" lon="83.57782">
        <ele>1012.89</ele>
        <time>2013-10-26T07:37:19Z</time>
      </trkpt>
      <trkpt lat="28.37504" lon="83.5778">
        <ele>1012.89</ele>
        <time>2013-10-26T07:37:32Z</time>
      </trkpt>
      <trkpt lat="28.37507" lon="83.5778">
        <ele>1013.37</ele>
        <time>2013-10-26T07:37:50Z</time>
      </trkpt>
      <trkpt lat="28.37507" lon="83.57779">
        <ele>1012.89</ele>
        <time>2013-10-26T07:38:14Z</time>
      </trkpt>
      <trkpt lat="28.37506" lon="83.57779">
        <ele>1012.89</ele>
        <time>2013-10-26T07:38:34Z</time>
      </trkpt>
      <trkpt lat="28.37507" lon="83.57783">
        <ele>1015.77</ele>
        <time>2013-10-26T07:38:55Z</time>
      </trkpt>
      <trkpt lat="28.37507" lon="83.57784">
        <ele>1012.41</ele>
        <time>2013-10-26T07:39:00Z</time>
      </trkpt>
      <trkpt lat="28.37507" lon="83.57784">
        <ele>1017.21</ele>
        <time>2013-10-26T07:39:01Z</time>
      </trkpt>
      <trkpt lat="28.37501" lon="83.57782">
        <ele>1017.21</ele>
        <time>2013-10-26T07:39:15Z</time>
      </trkpt>
      <trkpt lat="28.37493" lon="83.57776">
        <ele>1019.13</ele>
        <time>2013-10-26T07:39:30Z</time>
      </trkpt>
      <trkpt lat="28.3749" lon="83.57778">
        <ele>1022.98</ele>
        <time>2013-10-26T07:39:43Z</time>
      </trkpt>
      <trkpt lat="28.37493" lon="83.57785">
        <ele>1024.42</ele>
        <time>2013-10-26T07:39:58Z</time>
      </trkpt>
      <trkpt lat="28.37494" lon="83.57787">
        <ele>1021.54</ele>
        <time>2013-10-26T07:40:03Z</time>
      </trkpt>
      <trkpt lat="28.37495" lon="83.57788">
        <ele>1025.38</ele>
        <time>2013-10-26T07:40:05Z</time>
      </trkpt>
      <trkpt lat="28.37495" lon="83.57788">
        <ele>1023.94</ele>
        <time>2013-10-26T07:40:06Z</time>
      </trkpt>
      <trkpt lat="28.37497" lon="83.57792">
        <ele>1027.31</ele>
        <time>2013-10-26T07:40:14Z</time>
      </trkpt>
      <trkpt lat="28.37493" lon="83.57792">
        <ele>1027.79</ele>
        <time>2013-10-26T07:40:30Z</time>
      </trkpt>
      <trkpt lat="28.37491" lon="83.57791">
        <ele>1031.63</ele>
        <time>2013-10-26T07:40:45Z</time>
      </trkpt>
      <trkpt lat="28.37486" lon="83.57792">
        <ele>1031.63</ele>
        <time>2013-10-26T07:41:00Z</time>
      </trkpt>
      <trkpt lat="28.37484" lon="83.57792">
        <ele>1033.55</ele>
        <time>2013-10-26T07:41:20Z</time>
      </trkpt>
      <trkpt lat="28.37484" lon="83.57795">
        <ele>1033.07</ele>
        <time>2013-10-26T07:41:54Z</time>
      </trkpt>
      <trkpt lat="28.37484" lon="83.57795">
        <ele>1032.59</ele>
        <time>2013-10-26T07:42:15Z</time>
      </trkpt>
      <trkpt lat="28.37484" lon="83.57794">
        <ele>1032.59</ele>
        <time>2013-10-26T07:42:41Z</time>
      </trkpt>
      <trkpt lat="28.37484" lon="83.57793">
        <ele>1033.07</ele>
        <time>2013-10-26T07:43:00Z</time>
      </trkpt>
      <trkpt lat="28.37484" lon="83.57793">
        <ele>1033.07</ele>
        <time>2013-10-26T07:43:20Z</time>
      </trkpt>
      <trkpt lat="28.37483" lon="83.57794">
        <ele>1032.59</ele>
        <time>2013-10-26T07:43:40Z</time>
      </trkpt>
      <trkpt lat="28.37483" lon="83.57796">
        <ele>1033.55</ele>
        <time>2013-10-26T07:44:03Z</time>
      </trkpt>
      <trkpt lat="28.37486" lon="83.57798">
        <ele>1037.4</ele>
        <time>2013-10-26T07:44:22Z</time>
      </trkpt>
      <trkpt lat="28.3749" lon="83.57806">
        <ele>1037.88</ele>
        <time>2013-10-26T07:44:36Z</time>
      </trkpt>
      <trkpt lat="28.37491" lon="83.57806">
        <ele>1037.88</ele>
        <time>2013-10-26T07:45:03Z</time>
      </trkpt>
      <trkpt lat="28.37493" lon="83.57807">
        <ele>1037.4</ele>
        <time>2013-10-26T07:45:29Z</time>
      </trkpt>
      <trkpt lat="28.37489" lon="83.57807">
        <ele>1040.76</ele>
        <time>2013-10-26T07:45:45Z</time>
      </trkpt>
      <trkpt lat="28.37482" lon="83.57804">
        <ele>1042.21</ele>
        <time>2013-10-26T07:45:57Z</time>
      </trkpt>
      <trkpt lat="28.37484" lon="83.57811">
        <ele>1043.65</ele>
        <time>2013-10-26T07:46:09Z</time>
      </trkpt>
      <trkpt lat="28.37482" lon="83.57813">
        <ele>1047.49</ele>
        <time>2013-10-26T07:46:18Z</time>
      </trkpt>
      <trkpt lat="28.37479" lon="83.57815">
        <ele>1045.09</ele>
        <time>2013-10-26T07:46:32Z</time>
      </trkpt>
      <trkpt lat="28.37478" lon="83.57815">
        <ele>1054.22</ele>
        <time>2013-10-26T07:46:33Z</time>
      </trkpt>
      <trkpt lat="28.37478" lon="83.57815">
        <ele>1048.94</ele>
        <time>2013-10-26T07:46:34Z</time>
      </trkpt>
      <trkpt lat="28.37476" lon="83.57821">
        <ele>1052.78</ele>
        <time>2013-10-26T07:46:45Z</time>
      </trkpt>
      <trkpt lat="28.37477" lon="83.57826">
        <ele>1054.22</ele>
        <time>2013-10-26T07:47:00Z</time>
      </trkpt>
      <trkpt lat="28.37472" lon="83.57824">
        <ele>1058.07</ele>
        <time>2013-10-26T07:47:10Z</time>
      </trkpt>
      <trkpt lat="28.37472" lon="83.57824">
        <ele>1055.67</ele>
        <time>2013-10-26T07:47:11Z</time>
      </trkpt>
      <trkpt lat="28.37471" lon="83.57829">
        <ele>1059.51</ele>
        <time>2013-10-26T07:47:24Z</time>
      </trkpt>
      <trkpt lat="28.37471" lon="83.57834">
        <ele>1062.87</ele>
        <time>2013-10-26T07:47:38Z</time>
      </trkpt>
      <trkpt lat="28.37471" lon="83.57834">
        <ele>1059.51</ele>
        <time>2013-10-26T07:47:41Z</time>
      </trkpt>
      <trkpt lat="28.37471" lon="83.57837">
        <ele>1063.36</ele>
        <time>2013-10-26T07:47:48Z</time>
      </trkpt>
      <trkpt lat="28.37468" lon="83.57848">
        <ele>1066.72</ele>
        <time>2013-10-26T07:48:03Z</time>
      </trkpt>
      <trkpt lat="28.37468" lon="83.57848">
        <ele>1062.39</ele>
        <time>2013-10-26T07:48:04Z</time>
      </trkpt>
      <trkpt lat="28.3747" lon="83.5785">
        <ele>1066.24</ele>
        <time>2013-10-26T07:48:09Z</time>
      </trkpt>
      <trkpt lat="28.37478" lon="83.57855">
        <ele>1066.72</ele>
        <time>2013-10-26T07:48:25Z</time>
      </trkpt>
      <trkpt lat="28.3748" lon="83.57855">
        <ele>1065.76</ele>
        <time>2013-10-26T07:48:28Z</time>
      </trkpt>
      <trkpt lat="28.37491" lon="83.57855">
        <ele>1068.16</ele>
        <time>2013-10-26T07:48:39Z</time>
      </trkpt>
      <trkpt lat="28.37497" lon="83.57855">
        <ele>1068.16</ele>
        <time>2013-10-26T07:48:52Z</time>
      </trkpt>
      <trkpt lat="28.375" lon="83.57861">
        <ele>1070.57</ele>
        <time>2013-10-26T07:49:08Z</time>
      </trkpt>
      <trkpt lat="28.37496" lon="83.57861">
        <ele>1072.01</ele>
        <time>2013-10-26T07:49:21Z</time>
      </trkpt>
      <trkpt lat="28.37494" lon="83.5786">
        <ele>1072.49</ele>
        <time>2013-10-26T07:49:43Z</time>
      </trkpt>
      <trkpt lat="28.37489" lon="83.57864">
        <ele>1073.93</ele>
        <time>2013-10-26T07:49:55Z</time>
      </trkpt>
      <trkpt lat="28.37489" lon="83.57868">
        <ele>1077.29</ele>
        <time>2013-10-26T07:50:08Z</time>
      </trkpt>
      <trkpt lat="28.37486" lon="83.57874">
        <ele>1078.26</ele>
        <time>2013-10-26T07:50:23Z</time>
      </trkpt>
      <trkpt lat="28.37486" lon="83.57877">
        <ele>1080.66</ele>
        <time>2013-10-26T07:50:36Z</time>
      </trkpt>
      <trkpt lat="28.37487" lon="83.5788">
        <ele>1081.14</ele>
        <time>2013-10-26T07:50:47Z</time>
      </trkpt>
      <trkpt lat="28.37481" lon="83.57881">
        <ele>1083.06</ele>
        <time>2013-10-26T07:50:59Z</time>
      </trkpt>
      <trkpt lat="28.3748" lon="83.57883">
        <ele>1085.47</ele>
        <time>2013-10-26T07:51:12Z</time>
      </trkpt>
      <trkpt lat="28.37482" lon="83.57887">
        <ele>1086.43</ele>
        <time>2013-10-26T07:51:23Z</time>
      </trkpt>
      <trkpt lat="28.3749" lon="83.57895">
        <ele>1087.39</ele>
        <time>2013-10-26T07:51:38Z</time>
      </trkpt>
      <trkpt lat="28.37497" lon="83.57898">
        <ele>1088.35</ele>
        <time>2013-10-26T07:51:48Z</time>
      </trkpt>
      <trkpt lat="28.37502" lon="83.57902">
        <ele>1089.79</ele>
        <time>2013-10-26T07:52:02Z</time>
      </trkpt>
      <trkpt lat="28.37507" lon="83.57905">
        <ele>1090.75</ele>
        <time>2013-10-26T07:52:13Z</time>
      </trkpt>
      <trkpt lat="28.37511" lon="83.57906">
        <ele>1092.68</ele>
        <time>2013-10-26T07:52:27Z</time>
      </trkpt>
      <trkpt lat="28.37512" lon="83.57907">
        <ele>1093.64</ele>
        <time>2013-10-26T07:52:46Z</time>
      </trkpt>
      <trkpt lat="28.37512" lon="83.57908">
        <ele>1093.16</ele>
        <time>2013-10-26T07:53:06Z</time>
      </trkpt>
      <trkpt lat="28.37513" lon="83.57909">
        <ele>1093.16</ele>
        <time>2013-10-26T07:53:25Z</time>
      </trkpt>
      <trkpt lat="28.37513" lon="83.5791">
        <ele>1092.68</ele>
        <time>2013-10-26T07:53:56Z</time>
      </trkpt>
      <trkpt lat="28.37513" lon="83.5791">
        <ele>1093.16</ele>
        <time>2013-10-26T07:54:30Z</time>
      </trkpt>
      <trkpt lat="28.37513" lon="83.57911">
        <ele>1093.16</ele>
        <time>2013-10-26T07:55:02Z</time>
      </trkpt>
      <trkpt lat="28.37513" lon="83.57911">
        <ele>1093.64</ele>
        <time>2013-10-26T07:55:40Z</time>
      </trkpt>
      <trkpt lat="28.3751" lon="83.57908">
        <ele>1092.68</ele>
        <time>2013-10-26T07:56:06Z</time>
      </trkpt>
      <trkpt lat="28.3751" lon="83.57907">
        <ele>1092.68</ele>
        <time>2013-10-26T07:56:28Z</time>
      </trkpt>
      <trkpt lat="28.3751" lon="83.57906">
        <ele>1092.68</ele>
        <time>2013-10-26T07:57:01Z</time>
      </trkpt>
      <trkpt lat="28.3751" lon="83.57907">
        <ele>1094.12</ele>
        <time>2013-10-26T07:57:34Z</time>
      </trkpt>
      <trkpt lat="28.37511" lon="83.57909">
        <ele>1094.12</ele>
        <time>2013-10-26T07:57:56Z</time>
      </trkpt>
      <trkpt lat="28.37511" lon="83.57909">
        <ele>1093.64</ele>
        <time>2013-10-26T07:58:29Z</time>
      </trkpt>
      <trkpt lat="28.3751" lon="83.5791">
        <ele>1093.64</ele>
        <time>2013-10-26T07:58:59Z</time>
      </trkpt>
      <trkpt lat="28.3751" lon="83.5791">
        <ele>1094.12</ele>
        <time>2013-10-26T07:59:25Z</time>
      </trkpt>
      <trkpt lat="28.3751" lon="83.5791">
        <ele>1094.12</ele>
        <time>2013-10-26T07:59:56Z</time>
      </trkpt>
      <trkpt lat="28.3751" lon="83.5791">
        <ele>1094.12</ele>
        <time>2013-10-26T08:00:30Z</time>
      </trkpt>
      <trkpt lat="28.37512" lon="83.57908">
        <ele>1094.12</ele>
        <time>2013-10-26T08:00:48Z</time>
      </trkpt>
      <trkpt lat="28.37514" lon="83.57908">
        <ele>1094.6</ele>
        <time>2013-10-26T08:01:12Z</time>
      </trkpt>
      <trkpt lat="28.37513" lon="83.57913">
        <ele>1096.52</ele>
        <time>2013-10-26T08:01:30Z</time>
      </trkpt>
      <trkpt lat="28.3751" lon="83.57913">
        <ele>1097.96</ele>
        <time>2013-10-26T08:01:45Z</time>
      </trkpt>
      <trkpt lat="28.37514" lon="83.57917">
        <ele>1098.92</ele>
        <time>2013-10-26T08:01:59Z</time>
      </trkpt>
      <trkpt lat="28.37508" lon="83.57916">
        <ele>1102.77</ele>
        <time>2013-10-26T08:02:12Z</time>
      </trkpt>
      <trkpt lat="28.37508" lon="83.57916">
        <ele>1102.77</ele>
        <time>2013-10-26T08:02:13Z</time>
      </trkpt>
      <trkpt lat="28.37506" lon="83.57917">
        <ele>1102.77</ele>
        <time>2013-10-26T08:02:29Z</time>
      </trkpt>
      <trkpt lat="28.37499" lon="83.57918">
        <ele>1105.65</ele>
        <time>2013-10-26T08:02:44Z</time>
      </trkpt>
      <trkpt lat="28.37491" lon="83.57919">
        <ele>1107.58</ele>
        <time>2013-10-26T08:03:02Z</time>
      </trkpt>
      <trkpt lat="28.37487" lon="83.5792">
        <ele>1108.54</ele>
        <time>2013-10-26T08:03:17Z</time>
      </trkpt>
      <trkpt lat="28.37487" lon="83.57925">
        <ele>1111.42</ele>
        <time>2013-10-26T08:03:30Z</time>
      </trkpt>
      <trkpt lat="28.37492" lon="83.57931">
        <ele>1113.34</ele>
        <time>2013-10-26T08:03:47Z</time>
      </trkpt>
      <trkpt lat="28.37497" lon="83.57934">
        <ele>1115.75</ele>
        <time>2013-10-26T08:04:06Z</time>
      </trkpt>
      <trkpt lat="28.375" lon="83.57941">
        <ele>1118.15</ele>
        <time>2013-10-26T08:04:24Z</time>
      </trkpt>
      <trkpt lat="28.37501" lon="83.57946">
        <ele>1119.59</ele>
        <time>2013-10-26T08:04:44Z</time>
      </trkpt>
      <trkpt lat="28.37502" lon="83.57945">
        <ele>1119.59</ele>
        <time>2013-10-26T08:05:06Z</time>
      </trkpt>
      <trkpt lat="28.37496" lon="83.57946">
        <ele>1122.96</ele>
        <time>2013-10-26T08:05:22Z</time>
      </trkpt>
      <trkpt lat="28.3749" lon="83.57947">
        <ele>1123.44</ele>
        <time>2013-10-26T08:05:36Z</time>
      </trkpt>
      <trkpt lat="28.37488" lon="83.57951">
        <ele>1125.84</ele>
        <time>2013-10-26T08:05:50Z</time>
      </trkpt>
      <trkpt lat="28.37489" lon="83.57954">
        <ele>1127.76</ele>
        <time>2013-10-26T08:06:06Z</time>
      </trkpt>
      <trkpt lat="28.37489" lon="83.57957">
        <ele>1129.69</ele>
        <time>2013-10-26T08:06:18Z</time>
      </trkpt>
      <trkpt lat="28.37483" lon="83.57958">
        <ele>1131.13</ele>
        <time>2013-10-26T08:06:33Z</time>
      </trkpt>
      <trkpt lat="28.37483" lon="83.57964">
        <ele>1132.57</ele>
        <time>2013-10-26T08:06:50Z</time>
      </trkpt>
      <trkpt lat="28.37484" lon="83.57968">
        <ele>1135.45</ele>
        <time>2013-10-26T08:07:03Z</time>
      </trkpt>
      <trkpt lat="28.37483" lon="83.57971">
        <ele>1137.38</ele>
        <time>2013-10-26T08:07:21Z</time>
      </trkpt>
      <trkpt lat="28.37478" lon="83.57972">
        <ele>1140.74</ele>
        <time>2013-10-26T08:07:34Z</time>
      </trkpt>
      <trkpt lat="28.37473" lon="83.5797">
        <ele>1140.74</ele>
        <time>2013-10-26T08:07:50Z</time>
      </trkpt>
      <trkpt lat="28.3747" lon="83.57975">
        <ele>1144.11</ele>
        <time>2013-10-26T08:08:00Z</time>
      </trkpt>
      <trkpt lat="28.37473" lon="83.57978">
        <ele>1144.11</ele>
        <time>2013-10-26T08:08:13Z</time>
      </trkpt>
      <trkpt lat="28.37463" lon="83.5798">
        <ele>1146.03</ele>
        <time>2013-10-26T08:08:28Z</time>
      </trkpt>
      <trkpt lat="28.37465" lon="83.57981">
        <ele>1147.47</ele>
        <time>2013-10-26T08:08:32Z</time>
      </trkpt>
      <trkpt lat="28.37469" lon="83.57983">
        <ele>1143.14</ele>
        <time>2013-10-26T08:08:47Z</time>
      </trkpt>
      <trkpt lat="28.37469" lon="83.57983">
        <ele>1151.8</ele>
        <time>2013-10-26T08:08:48Z</time>
      </trkpt>
      <trkpt lat="28.37469" lon="83.57983">
        <ele>1147.47</ele>
        <time>2013-10-26T08:08:49Z</time>
      </trkpt>
      <trkpt lat="28.3747" lon="83.57984">
        <ele>1150.84</ele>
        <time>2013-10-26T08:08:55Z</time>
      </trkpt>
      <trkpt lat="28.37474" lon="83.57988">
        <ele>1150.35</ele>
        <time>2013-10-26T08:09:08Z</time>
      </trkpt>
      <trkpt lat="28.37472" lon="83.57988">
        <ele>1153.24</ele>
        <time>2013-10-26T08:09:16Z</time>
      </trkpt>
      <trkpt lat="28.37472" lon="83.57989">
        <ele>1151.32</ele>
        <time>2013-10-26T08:09:34Z</time>
      </trkpt>
      <trkpt lat="28.37471" lon="83.5799">
        <ele>1154.68</ele>
        <time>2013-10-26T08:09:38Z</time>
      </trkpt>
      <trkpt lat="28.37471" lon="83.5799">
        <ele>1153.72</ele>
        <time>2013-10-26T08:09:39Z</time>
      </trkpt>
      <trkpt lat="28.37471" lon="83.5799">
        <ele>1154.68</ele>
        <time>2013-10-26T08:09:43Z</time>
      </trkpt>
      <trkpt lat="28.37465" lon="83.57989">
        <ele>1155.64</ele>
        <time>2013-10-26T08:10:01Z</time>
      </trkpt>
      <trkpt lat="28.37465" lon="83.57989">
        <ele>1155.16</ele>
        <time>2013-10-26T08:10:19Z</time>
      </trkpt>
      <trkpt lat="28.37463" lon="83.57988">
        <ele>1155.64</ele>
        <time>2013-10-26T08:10:45Z</time>
      </trkpt>
      <trkpt lat="28.37464" lon="83.5799">
        <ele>1156.12</ele>
        <time>2013-10-26T08:11:06Z</time>
      </trkpt>
      <trkpt lat="28.37466" lon="83.57988">
        <ele>1155.64</ele>
        <time>2013-10-26T08:11:32Z</time>
      </trkpt>
      <trkpt lat="28.37465" lon="83.57987">
        <ele>1156.12</ele>
        <time>2013-10-26T08:11:48Z</time>
      </trkpt>
      <trkpt lat="28.37466" lon="83.57988">
        <ele>1156.6</ele>
        <time>2013-10-26T08:12:14Z</time>
      </trkpt>
      <trkpt lat="28.37466" lon="83.57988">
        <ele>1156.12</ele>
        <time>2013-10-26T08:12:16Z</time>
      </trkpt>
      <trkpt lat="28.37466" lon="83.57989">
        <ele>1156.12</ele>
        <time>2013-10-26T08:12:49Z</time>
      </trkpt>
      <trkpt lat="28.37466" lon="83.57989">
        <ele>1157.56</ele>
        <time>2013-10-26T08:13:04Z</time>
      </trkpt>
      <trkpt lat="28.37467" lon="83.57989">
        <ele>1156.12</ele>
        <time>2013-10-26T08:13:25Z</time>
      </trkpt>
      <trkpt lat="28.37466" lon="83.57989">
        <ele>1156.6</ele>
        <time>2013-10-26T08:13:55Z</time>
      </trkpt>
      <trkpt lat="28.37467" lon="83.57989">
        <ele>1156.6</ele>
        <time>2013-10-26T08:14:25Z</time>
      </trkpt>
      <trkpt lat="28.37467" lon="83.57988">
        <ele>1156.6</ele>
        <time>2013-10-26T08:14:51Z</time>
      </trkpt>
      <trkpt lat="28.37467" lon="83.57988">
        <ele>1157.08</ele>
        <time>2013-10-26T08:15:17Z</time>
      </trkpt>
      <trkpt lat="28.37466" lon="83.57987">
        <ele>1157.08</ele>
        <time>2013-10-26T08:15:41Z</time>
      </trkpt>
      <trkpt lat="28.37466" lon="83.57987">
        <ele>1156.6</ele>
        <time>2013-10-26T08:16:12Z</time>
      </trkpt>
      <trkpt lat="28.37467" lon="83.57988">
        <ele>1157.08</ele>
        <time>2013-10-26T08:16:39Z</time>
      </trkpt>
      <trkpt lat="28.37468" lon="83.57988">
        <ele>1157.08</ele>
        <time>2013-10-26T08:16:59Z</time>
      </trkpt>
      <trkpt lat="28.37468" lon="83.57988">
        <ele>1157.08</ele>
        <time>2013-10-26T08:17:22Z</time>
      </trkpt>
      <trkpt lat="28.37468" lon="83.57987">
        <ele>1157.08</ele>
        <time>2013-10-26T08:17:47Z</time>
      </trkpt>
      <trkpt lat="28.37469" lon="83.57988">
        <ele>1157.56</ele>
        <time>2013-10-26T08:18:05Z</time>
      </trkpt>
      <trkpt lat="28.37468" lon="83.5799">
        <ele>1157.56</ele>
        <time>2013-10-26T08:18:22Z</time>
      </trkpt>
      <trkpt lat="28.37467" lon="83.57988">
        <ele>1157.56</ele>
        <time>2013-10-26T08:18:47Z</time>
      </trkpt>
      <trkpt lat="28.37467" lon="83.57988">
        <ele>1157.56</ele>
        <time>2013-10-26T08:19:13Z</time>
      </trkpt>
      <trkpt lat="28.37467" lon="83.57988">
        <ele>1157.56</ele>
        <time>2013-10-26T08:19:36Z</time>
      </trkpt>
      <trkpt lat="28.37467" lon="83.5799">
        <ele>1158.05</ele>
        <time>2013-10-26T08:20:00Z</time>
      </trkpt>
      <trkpt lat="28.37467" lon="83.57991">
        <ele>1158.05</ele>
        <time>2013-10-26T08:20:26Z</time>
      </trkpt>
      <trkpt lat="28.37467" lon="83.57991">
        <ele>1158.05</ele>
        <time>2013-10-26T08:20:58Z</time>
      </trkpt>
      <trkpt lat="28.37468" lon="83.57991">
        <ele>1158.53</ele>
        <time>2013-10-26T08:21:23Z</time>
      </trkpt>
      <trkpt lat="28.37467" lon="83.57991">
        <ele>1158.53</ele>
        <time>2013-10-26T08:21:52Z</time>
      </trkpt>
      <trkpt lat="28.37468" lon="83.57992">
        <ele>1158.53</ele>
        <time>2013-10-26T08:22:25Z</time>
      </trkpt>
      <trkpt lat="28.37468" lon="83.57992">
        <ele>1159.01</ele>
        <time>2013-10-26T08:22:53Z</time>
      </trkpt>
      <trkpt lat="28.37467" lon="83.57994">
        <ele>1159.97</ele>
        <time>2013-10-26T08:23:10Z</time>
      </trkpt>
      <trkpt lat="28.37466" lon="83.57996">
        <ele>1160.93</ele>
        <time>2013-10-26T08:23:24Z</time>
      </trkpt>
      <trkpt lat="28.37466" lon="83.57993">
        <ele>1159.97</ele>
        <time>2013-10-26T08:23:48Z</time>
      </trkpt>
      <trkpt lat="28.3747" lon="83.57993">
        <ele>1158.53</ele>
        <time>2013-10-26T08:24:01Z</time>
      </trkpt>
      <trkpt lat="28.3747" lon="83.57993">
        <ele>1159.01</ele>
        <time>2013-10-26T08:24:29Z</time>
      </trkpt>
      <trkpt lat="28.3747" lon="83.57993">
        <ele>1159.01</ele>
        <time>2013-10-26T08:24:51Z</time>
      </trkpt>
      <trkpt lat="28.37469" lon="83.57992">
        <ele>1158.53</ele>
        <time>2013-10-26T08:25:09Z</time>
      </trkpt>
      <trkpt lat="28.37469" lon="83.57994">
        <ele>1158.53</ele>
        <time>2013-10-26T08:25:22Z</time>
      </trkpt>
      <trkpt lat="28.3747" lon="83.57994">
        <ele>1159.01</ele>
        <time>2013-10-26T08:25:44Z</time>
      </trkpt>
      <trkpt lat="28.3747" lon="83.57994">
        <ele>1155.64</ele>
        <time>2013-10-26T08:25:50Z</time>
      </trkpt>
      <trkpt lat="28.3747" lon="83.57994">
        <ele>1159.97</ele>
        <time>2013-10-26T08:25:51Z</time>
      </trkpt>
      <trkpt lat="28.3747" lon="83.57993">
        <ele>1159.01</ele>
        <time>2013-10-26T08:26:15Z</time>
      </trkpt>
      <trkpt lat="28.37471" lon="83.57993">
        <ele>1153.72</ele>
        <time>2013-10-26T08:26:33Z</time>
      </trkpt>
      <trkpt lat="28.37471" lon="83.57993">
        <ele>1163.81</ele>
        <time>2013-10-26T08:26:34Z</time>
      </trkpt>
      <trkpt lat="28.37471" lon="83.57993">
        <ele>1159.97</ele>
        <time>2013-10-26T08:26:35Z</time>
      </trkpt>
      <trkpt lat="28.37469" lon="83.57994">
        <ele>1159.49</ele>
        <time>2013-10-26T08:26:57Z</time>
      </trkpt>
      <trkpt lat="28.3747" lon="83.57994">
        <ele>1159.49</ele>
        <time>2013-10-26T08:27:16Z</time>
      </trkpt>
      <trkpt lat="28.37469" lon="83.57994">
        <ele>1159.97</ele>
        <time>2013-10-26T08:27:31Z</time>
      </trkpt>
      <trkpt lat="28.37469" lon="83.57993">
        <ele>1159.97</ele>
        <time>2013-10-26T08:27:57Z</time>
      </trkpt>
      <trkpt lat="28.37468" lon="83.57993">
        <ele>1159.97</ele>
        <time>2013-10-26T08:28:22Z</time>
      </trkpt>
      <trkpt lat="28.37468" lon="83.57992">
        <ele>1159.97</ele>
        <time>2013-10-26T08:28:49Z</time>
      </trkpt>
      <trkpt lat="28.37469" lon="83.57991">
        <ele>1156.12</ele>
        <time>2013-10-26T08:29:01Z</time>
      </trkpt>
      <trkpt lat="28.37469" lon="83.57991">
        <ele>1163.33</ele>
        <time>2013-10-26T08:29:02Z</time>
      </trkpt>
      <trkpt lat="28.37469" lon="83.57991">
        <ele>1159.97</ele>
        <time>2013-10-26T08:29:03Z</time>
      </trkpt>
      <trkpt lat="28.37468" lon="83.57994">
        <ele>1161.41</ele>
        <time>2013-10-26T08:29:20Z</time>
      </trkpt>
      <trkpt lat="28.37468" lon="83.57996">
        <ele>1162.37</ele>
        <time>2013-10-26T08:29:34Z</time>
      </trkpt>
      <trkpt lat="28.37463" lon="83.58004">
        <ele>1162.85</ele>
        <time>2013-10-26T08:29:47Z</time>
      </trkpt>
      <trkpt lat="28.37463" lon="83.5801">
        <ele>1166.22</ele>
        <time>2013-10-26T08:29:56Z</time>
      </trkpt>
      <trkpt lat="28.37461" lon="83.58014">
        <ele>1168.14</ele>
        <time>2013-10-26T08:30:09Z</time>
      </trkpt>
      <trkpt lat="28.37459" lon="83.58018">
        <ele>1169.1</ele>
        <time>2013-10-26T08:30:25Z</time>
      </trkpt>
      <trkpt lat="28.37456" lon="83.58024">
        <ele>1170.06</ele>
        <time>2013-10-26T08:30:42Z</time>
      </trkpt>
      <trkpt lat="28.37453" lon="83.58028">
        <ele>1173.91</ele>
        <time>2013-10-26T08:30:53Z</time>
      </trkpt>
      <trkpt lat="28.37451" lon="83.58042">
        <ele>1177.75</ele>
        <time>2013-10-26T08:31:11Z</time>
      </trkpt>
      <trkpt lat="28.37455" lon="83.58046">
        <ele>1177.75</ele>
        <time>2013-10-26T08:31:26Z</time>
      </trkpt>
      <trkpt lat="28.37456" lon="83.58053">
        <ele>1179.67</ele>
        <time>2013-10-26T08:31:39Z</time>
      </trkpt>
      <trkpt lat="28.37461" lon="83.58061">
        <ele>1182.08</ele>
        <time>2013-10-26T08:31:56Z</time>
      </trkpt>
      <trkpt lat="28.37463" lon="83.58062">
        <ele>1181.6</ele>
        <time>2013-10-26T08:32:12Z</time>
      </trkpt>
      <trkpt lat="28.37463" lon="83.58061">
        <ele>1183.04</ele>
        <time>2013-10-26T08:32:38Z</time>
      </trkpt>
      <trkpt lat="28.37463" lon="83.58068">
        <ele>1184.96</ele>
        <time>2013-10-26T08:32:53Z</time>
      </trkpt>
      <trkpt lat="28.37463" lon="83.58072">
        <ele>1185.44</ele>
        <time>2013-10-26T08:33:12Z</time>
      </trkpt>
      <trkpt lat="28.37464" lon="83.58076">
        <ele>1187.37</ele>
        <time>2013-10-26T08:33:33Z</time>
      </trkpt>
      <trkpt lat="28.37464" lon="83.5808">
        <ele>1187.85</ele>
        <time>2013-10-26T08:33:50Z</time>
      </trkpt>
      <trkpt lat="28.37464" lon="83.5808">
        <ele>1188.33</ele>
        <time>2013-10-26T08:34:11Z</time>
      </trkpt>
      <trkpt lat="28.37463" lon="83.58079">
        <ele>1188.81</ele>
        <time>2013-10-26T08:34:33Z</time>
      </trkpt>
      <trkpt lat="28.37463" lon="83.58078">
        <ele>1189.29</ele>
        <time>2013-10-26T08:34:55Z</time>
      </trkpt>
      <trkpt lat="28.3746" lon="83.58081">
        <ele>1192.17</ele>
        <time>2013-10-26T08:35:13Z</time>
      </trkpt>
      <trkpt lat="28.37464" lon="83.58094">
        <ele>1193.13</ele>
        <time>2013-10-26T08:35:27Z</time>
      </trkpt>
      <trkpt lat="28.37463" lon="83.58101">
        <ele>1194.58</ele>
        <time>2013-10-26T08:35:47Z</time>
      </trkpt>
      <trkpt lat="28.37461" lon="83.58103">
        <ele>1197.94</ele>
        <time>2013-10-26T08:35:58Z</time>
      </trkpt>
      <trkpt lat="28.3746" lon="83.58115">
        <ele>1200.34</ele>
        <time>2013-10-26T08:36:17Z</time>
      </trkpt>
      <trkpt lat="28.37456" lon="83.58122">
        <ele>1202.75</ele>
        <time>2013-10-26T08:36:34Z</time>
      </trkpt>
      <trkpt lat="28.37455" lon="83.58123">
        <ele>1203.71</ele>
        <time>2013-10-26T08:36:38Z</time>
      </trkpt>
      <trkpt lat="28.37455" lon="83.58125">
        <ele>1206.59</ele>
        <time>2013-10-26T08:36:42Z</time>
      </trkpt>
      <trkpt lat="28.37451" lon="83.58123">
        <ele>1207.55</ele>
        <time>2013-10-26T08:37:01Z</time>
      </trkpt>
      <trkpt lat="28.37449" lon="83.58129">
        <ele>1209.48</ele>
        <time>2013-10-26T08:37:18Z</time>
      </trkpt>
      <trkpt lat="28.37446" lon="83.58133">
        <ele>1211.4</ele>
        <time>2013-10-26T08:37:33Z</time>
      </trkpt>
      <trkpt lat="28.37444" lon="83.5814">
        <ele>1214.28</ele>
        <time>2013-10-26T08:37:50Z</time>
      </trkpt>
      <trkpt lat="28.37441" lon="83.58149">
        <ele>1215.72</ele>
        <time>2013-10-26T08:38:05Z</time>
      </trkpt>
      <trkpt lat="28.37441" lon="83.58151">
        <ele>1220.05</ele>
        <time>2013-10-26T08:38:20Z</time>
      </trkpt>
      <trkpt lat="28.37441" lon="83.58151">
        <ele>1215.72</ele>
        <time>2013-10-26T08:38:21Z</time>
      </trkpt>
      <trkpt lat="28.37439" lon="83.58151">
        <ele>1219.57</ele>
        <time>2013-10-26T08:38:28Z</time>
      </trkpt>
      <trkpt lat="28.37439" lon="83.58151">
        <ele>1213.32</ele>
        <time>2013-10-26T08:38:31Z</time>
      </trkpt>
      <trkpt lat="28.37438" lon="83.58151">
        <ele>1218.13</ele>
        <time>2013-10-26T08:38:32Z</time>
      </trkpt>
      <trkpt lat="28.37438" lon="83.58151">
        <ele>1223.42</ele>
        <time>2013-10-26T08:38:33Z</time>
      </trkpt>
      <trkpt lat="28.37438" lon="83.58151">
        <ele>1219.09</ele>
        <time>2013-10-26T08:38:34Z</time>
      </trkpt>
      <trkpt lat="28.37435" lon="83.58153">
        <ele>1221.49</ele>
        <time>2013-10-26T08:38:51Z</time>
      </trkpt>
      <trkpt lat="28.37429" lon="83.58151">
        <ele>1224.38</ele>
        <time>2013-10-26T08:39:08Z</time>
      </trkpt>
      <trkpt lat="28.37422" lon="83.58151">
        <ele>1226.3</ele>
        <time>2013-10-26T08:39:24Z</time>
      </trkpt>
      <trkpt lat="28.37421" lon="83.58148">
        <ele>1226.78</ele>
        <time>2013-10-26T08:39:38Z</time>
      </trkpt>
      <trkpt lat="28.37419" lon="83.58148">
        <ele>1226.78</ele>
        <time>2013-10-26T08:40:07Z</time>
      </trkpt>
      <trkpt lat="28.3742" lon="83.5815">
        <ele>1227.26</ele>
        <time>2013-10-26T08:40:22Z</time>
      </trkpt>
      <trkpt lat="28.37422" lon="83.58158">
        <ele>1228.22</ele>
        <time>2013-10-26T08:40:32Z</time>
      </trkpt>
      <trkpt lat="28.37427" lon="83.58172">
        <ele>1230.14</ele>
        <time>2013-10-26T08:40:47Z</time>
      </trkpt>
      <trkpt lat="28.3743" lon="83.58178">
        <ele>1234.95</ele>
        <time>2013-10-26T08:40:59Z</time>
      </trkpt>
      <trkpt lat="28.37427" lon="83.58179">
        <ele>1234.47</ele>
        <time>2013-10-26T08:41:08Z</time>
      </trkpt>
      <trkpt lat="28.37431" lon="83.58188">
        <ele>1237.83</ele>
        <time>2013-10-26T08:41:19Z</time>
      </trkpt>
      <trkpt lat="28.3743" lon="83.58195">
        <ele>1237.83</ele>
        <time>2013-10-26T08:41:25Z</time>
      </trkpt>
      <trkpt lat="28.37429" lon="83.58207">
        <ele>1238.32</ele>
        <time>2013-10-26T08:41:38Z</time>
      </trkpt>
      <trkpt lat="28.37434" lon="83.58217">
        <ele>1237.35</ele>
        <time>2013-10-26T08:41:51Z</time>
      </trkpt>
      <trkpt lat="28.37436" lon="83.58227">
        <ele>1240.72</ele>
        <time>2013-10-26T08:42:00Z</time>
      </trkpt>
      <trkpt lat="28.3744" lon="83.58236">
        <ele>1240.72</ele>
        <time>2013-10-26T08:42:15Z</time>
      </trkpt>
      <trkpt lat="28.3744" lon="83.58237">
        <ele>1242.16</ele>
        <time>2013-10-26T08:42:33Z</time>
      </trkpt>
      <trkpt lat="28.37438" lon="83.58238">
        <ele>1241.68</ele>
        <time>2013-10-26T08:42:48Z</time>
      </trkpt>
      <trkpt lat="28.37441" lon="83.58239">
        <ele>1242.16</ele>
        <time>2013-10-26T08:43:07Z</time>
      </trkpt>
      <trkpt lat="28.37442" lon="83.5824">
        <ele>1242.16</ele>
        <time>2013-10-26T08:43:34Z</time>
      </trkpt>
      <trkpt lat="28.37441" lon="83.58241">
        <ele>1242.16</ele>
        <time>2013-10-26T08:44:00Z</time>
      </trkpt>
      <trkpt lat="28.37444" lon="83.58244">
        <ele>1244.08</ele>
        <time>2013-10-26T08:44:16Z</time>
      </trkpt>
      <trkpt lat="28.37444" lon="83.58244">
        <ele>1243.12</ele>
        <time>2013-10-26T08:44:44Z</time>
      </trkpt>
      <trkpt lat="28.37445" lon="83.58246">
        <ele>1244.56</ele>
        <time>2013-10-26T08:44:46Z</time>
      </trkpt>
      <trkpt lat="28.3745" lon="83.58255">
        <ele>1246.01</ele>
        <time>2013-10-26T08:45:00Z</time>
      </trkpt>
      <trkpt lat="28.37451" lon="83.58262">
        <ele>1248.41</ele>
        <time>2013-10-26T08:45:12Z</time>
      </trkpt>
      <trkpt lat="28.37453" lon="83.58272">
        <ele>1249.85</ele>
        <time>2013-10-26T08:45:25Z</time>
      </trkpt>
      <trkpt lat="28.37454" lon="83.58274">
        <ele>1251.77</ele>
        <time>2013-10-26T08:45:29Z</time>
      </trkpt>
      <trkpt lat="28.37455" lon="83.58283">
        <ele>1252.25</ele>
        <time>2013-10-26T08:45:41Z</time>
      </trkpt>
      <trkpt lat="28.37457" lon="83.58292">
        <ele>1255.14</ele>
        <time>2013-10-26T08:45:51Z</time>
      </trkpt>
      <trkpt lat="28.37464" lon="83.58301">
        <ele>1256.1</ele>
        <time>2013-10-26T08:46:05Z</time>
      </trkpt>
      <trkpt lat="28.37464" lon="83.58308">
        <ele>1257.06</ele>
        <time>2013-10-26T08:46:21Z</time>
      </trkpt>
      <trkpt lat="28.37463" lon="83.58314">
        <ele>1258.5</ele>
        <time>2013-10-26T08:46:34Z</time>
      </trkpt>
      <trkpt lat="28.37465" lon="83.58318">
        <ele>1258.5</ele>
        <time>2013-10-26T08:46:48Z</time>
      </trkpt>
      <trkpt lat="28.37466" lon="83.58324">
        <ele>1259.94</ele>
        <time>2013-10-26T08:47:01Z</time>
      </trkpt>
      <trkpt lat="28.37468" lon="83.58326">
        <ele>1258.98</ele>
        <time>2013-10-26T08:47:13Z</time>
      </trkpt>
      <trkpt lat="28.37469" lon="83.58327">
        <ele>1259.46</ele>
        <time>2013-10-26T08:47:36Z</time>
      </trkpt>
      <trkpt lat="28.3747" lon="83.58329">
        <ele>1258.5</ele>
        <time>2013-10-26T08:47:58Z</time>
      </trkpt>
      <trkpt lat="28.37469" lon="83.5834">
        <ele>1260.91</ele>
        <time>2013-10-26T08:48:11Z</time>
      </trkpt>
      <trkpt lat="28.37469" lon="83.58351">
        <ele>1262.35</ele>
        <time>2013-10-26T08:48:25Z</time>
      </trkpt>
      <trkpt lat="28.3747" lon="83.58361">
        <ele>1264.27</ele>
        <time>2013-10-26T08:48:38Z</time>
      </trkpt>
      <trkpt lat="28.37473" lon="83.58372">
        <ele>1265.71</ele>
        <time>2013-10-26T08:48:50Z</time>
      </trkpt>
      <trkpt lat="28.37478" lon="83.58381">
        <ele>1267.16</ele>
        <time>2013-10-26T08:49:03Z</time>
      </trkpt>
      <trkpt lat="28.37481" lon="83.58391">
        <ele>1270.04</ele>
        <time>2013-10-26T08:49:16Z</time>
      </trkpt>
      <trkpt lat="28.3748" lon="83.58397">
        <ele>1269.56</ele>
        <time>2013-10-26T08:49:35Z</time>
      </trkpt>
      <trkpt lat="28.37484" lon="83.58407">
        <ele>1270.04</ele>
        <time>2013-10-26T08:49:49Z</time>
      </trkpt>
      <trkpt lat="28.37487" lon="83.58412">
        <ele>1270.04</ele>
        <time>2013-10-26T08:49:58Z</time>
      </trkpt>
      <trkpt lat="28.3749" lon="83.58415">
        <ele>1269.56</ele>
        <time>2013-10-26T08:50:13Z</time>
      </trkpt>
      <trkpt lat="28.37495" lon="83.58421">
        <ele>1269.56</ele>
        <time>2013-10-26T08:50:26Z</time>
      </trkpt>
      <trkpt lat="28.37496" lon="83.58421">
        <ele>1269.56</ele>
        <time>2013-10-26T08:50:47Z</time>
      </trkpt>
      <trkpt lat="28.37494" lon="83.58422">
        <ele>1269.56</ele>
        <time>2013-10-26T08:51:09Z</time>
      </trkpt>
      <trkpt lat="28.37497" lon="83.58423">
        <ele>1271</ele>
        <time>2013-10-26T08:51:25Z</time>
      </trkpt>
      <trkpt lat="28.37498" lon="83.58426">
        <ele>1271.48</ele>
        <time>2013-10-26T08:51:28Z</time>
      </trkpt>
      <trkpt lat="28.37507" lon="83.58435">
        <ele>1271.96</ele>
        <time>2013-10-26T08:51:41Z</time>
      </trkpt>
      <trkpt lat="28.37514" lon="83.58446">
        <ele>1271.96</ele>
        <time>2013-10-26T08:51:54Z</time>
      </trkpt>
      <trkpt lat="28.37516" lon="83.58449">
        <ele>1273.4</ele>
        <time>2013-10-26T08:51:58Z</time>
      </trkpt>
      <trkpt lat="28.37523" lon="83.5846">
        <ele>1274.36</ele>
        <time>2013-10-26T08:52:11Z</time>
      </trkpt>
      <trkpt lat="28.37525" lon="83.58466">
        <ele>1274.36</ele>
        <time>2013-10-26T08:52:22Z</time>
      </trkpt>
      <trkpt lat="28.37524" lon="83.58466">
        <ele>1273.88</ele>
        <time>2013-10-26T08:52:37Z</time>
      </trkpt>
      <trkpt lat="28.37525" lon="83.58461">
        <ele>1274.36</ele>
        <time>2013-10-26T08:52:52Z</time>
      </trkpt>
      <trkpt lat="28.37525" lon="83.58461">
        <ele>1274.36</ele>
        <time>2013-10-26T08:53:30Z</time>
      </trkpt>
      <trkpt lat="28.37526" lon="83.58462">
        <ele>1274.36</ele>
        <time>2013-10-26T08:53:36Z</time>
      </trkpt>
      <trkpt lat="28.37532" lon="83.58471">
        <ele>1274.36</ele>
        <time>2013-10-26T08:53:44Z</time>
      </trkpt>
      <trkpt lat="28.37535" lon="83.58478">
        <ele>1275.33</ele>
        <time>2013-10-26T08:53:59Z</time>
      </trkpt>
      <trkpt lat="28.37537" lon="83.58478">
        <ele>1275.33</ele>
        <time>2013-10-26T08:54:22Z</time>
      </trkpt>
      <trkpt lat="28.37549" lon="83.58484">
        <ele>1276.29</ele>
        <time>2013-10-26T08:54:35Z</time>
      </trkpt>
      <trkpt lat="28.37556" lon="83.58489">
        <ele>1279.17</ele>
        <time>2013-10-26T08:54:45Z</time>
      </trkpt>
      <trkpt lat="28.37563" lon="83.58494">
        <ele>1278.21</ele>
        <time>2013-10-26T08:54:59Z</time>
      </trkpt>
      <trkpt lat="28.37565" lon="83.58496">
        <ele>1281.57</ele>
        <time>2013-10-26T08:55:03Z</time>
      </trkpt>
      <trkpt lat="28.37572" lon="83.58502">
        <ele>1282.54</ele>
        <time>2013-10-26T08:55:15Z</time>
      </trkpt>
      <trkpt lat="28.37578" lon="83.58509">
        <ele>1284.46</ele>
        <time>2013-10-26T08:55:27Z</time>
      </trkpt>
      <trkpt lat="28.3758" lon="83.58512">
        <ele>1284.94</ele>
        <time>2013-10-26T08:55:31Z</time>
      </trkpt>
      <trkpt lat="28.37584" lon="83.58519">
        <ele>1285.9</ele>
        <time>2013-10-26T08:55:41Z</time>
      </trkpt>
      <trkpt lat="28.37588" lon="83.58524">
        <ele>1285.9</ele>
        <time>2013-10-26T08:55:48Z</time>
      </trkpt>
      <trkpt lat="28.37592" lon="83.5854">
        <ele>1288.3</ele>
        <time>2013-10-26T08:56:03Z</time>
      </trkpt>
      <trkpt lat="28.37594" lon="83.58545">
        <ele>1288.3</ele>
        <time>2013-10-26T08:56:08Z</time>
      </trkpt>
      <trkpt lat="28.37598" lon="83.5855">
        <ele>1287.82</ele>
        <time>2013-10-26T08:56:13Z</time>
      </trkpt>
      <trkpt lat="28.37606" lon="83.58558">
        <ele>1289.27</ele>
        <time>2013-10-26T08:56:25Z</time>
      </trkpt>
      <trkpt lat="28.37613" lon="83.5856">
        <ele>1290.71</ele>
        <time>2013-10-26T08:56:39Z</time>
      </trkpt>
      <trkpt lat="28.37618" lon="83.58563">
        <ele>1291.19</ele>
        <time>2013-10-26T08:56:45Z</time>
      </trkpt>
      <trkpt lat="28.37621" lon="83.58566">
        <ele>1292.63</ele>
        <time>2013-10-26T08:56:49Z</time>
      </trkpt>
      <trkpt lat="28.37629" lon="83.58575">
        <ele>1293.11</ele>
        <time>2013-10-26T08:57:01Z</time>
      </trkpt>
      <trkpt lat="28.37637" lon="83.58584">
        <ele>1293.59</ele>
        <time>2013-10-26T08:57:14Z</time>
      </trkpt>
      <trkpt lat="28.37645" lon="83.58591">
        <ele>1295.03</ele>
        <time>2013-10-26T08:57:27Z</time>
      </trkpt>
      <trkpt lat="28.37651" lon="83.58598">
        <ele>1297.44</ele>
        <time>2013-10-26T08:57:40Z</time>
      </trkpt>
      <trkpt lat="28.37654" lon="83.586">
        <ele>1298.4</ele>
        <time>2013-10-26T08:57:55Z</time>
      </trkpt>
      <trkpt lat="28.37654" lon="83.586">
        <ele>1298.4</ele>
        <time>2013-10-26T08:58:16Z</time>
      </trkpt>
      <trkpt lat="28.37653" lon="83.586">
        <ele>1298.4</ele>
        <time>2013-10-26T08:58:41Z</time>
      </trkpt>
      <trkpt lat="28.37652" lon="83.586">
        <ele>1298.88</ele>
        <time>2013-10-26T08:59:01Z</time>
      </trkpt>
      <trkpt lat="28.37652" lon="83.58599">
        <ele>1299.84</ele>
        <time>2013-10-26T08:59:23Z</time>
      </trkpt>
      <trkpt lat="28.37652" lon="83.58598">
        <ele>1299.36</ele>
        <time>2013-10-26T08:59:45Z</time>
      </trkpt>
      <trkpt lat="28.37652" lon="83.58599">
        <ele>1298.88</ele>
        <time>2013-10-26T09:00:01Z</time>
      </trkpt>
      <trkpt lat="28.37653" lon="83.58598">
        <ele>1299.36</ele>
        <time>2013-10-26T09:00:22Z</time>
      </trkpt>
      <trkpt lat="28.37653" lon="83.58597">
        <ele>1299.36</ele>
        <time>2013-10-26T09:00:46Z</time>
      </trkpt>
      <trkpt lat="28.37653" lon="83.58598">
        <ele>1299.36</ele>
        <time>2013-10-26T09:01:09Z</time>
      </trkpt>
      <trkpt lat="28.37653" lon="83.58598">
        <ele>1299.36</ele>
        <time>2013-10-26T09:01:29Z</time>
      </trkpt>
      <trkpt lat="28.37652" lon="83.58599">
        <ele>1299.36</ele>
        <time>2013-10-26T09:01:59Z</time>
      </trkpt>
      <trkpt lat="28.37652" lon="83.58599">
        <ele>1299.84</ele>
        <time>2013-10-26T09:02:17Z</time>
      </trkpt>
      <trkpt lat="28.37653" lon="83.58598">
        <ele>1300.32</ele>
        <time>2013-10-26T09:02:46Z</time>
      </trkpt>
      <trkpt lat="28.37654" lon="83.58598">
        <ele>1299.84</ele>
        <time>2013-10-26T09:03:11Z</time>
      </trkpt>
      <trkpt lat="28.37653" lon="83.58598">
        <ele>1300.32</ele>
        <time>2013-10-26T09:03:39Z</time>
      </trkpt>
      <trkpt lat="28.37653" lon="83.586">
        <ele>1300.32</ele>
        <time>2013-10-26T09:03:53Z</time>
      </trkpt>
      <trkpt lat="28.37654" lon="83.58599">
        <ele>1301.28</ele>
        <time>2013-10-26T09:04:20Z</time>
      </trkpt>
      <trkpt lat="28.37656" lon="83.58598">
        <ele>1301.28</ele>
        <time>2013-10-26T09:04:41Z</time>
      </trkpt>
      <trkpt lat="28.37655" lon="83.58598">
        <ele>1301.28</ele>
        <time>2013-10-26T09:05:01Z</time>
      </trkpt>
      <trkpt lat="28.37654" lon="83.58601">
        <ele>1301.28</ele>
        <time>2013-10-26T09:05:16Z</time>
      </trkpt>
      <trkpt lat="28.37654" lon="83.58604">
        <ele>1300.8</ele>
        <time>2013-10-26T09:05:19Z</time>
      </trkpt>
      <trkpt lat="28.37652" lon="83.58607">
        <ele>1300.8</ele>
        <time>2013-10-26T09:05:21Z</time>
      </trkpt>
      <trkpt lat="28.37652" lon="83.58609">
        <ele>1300.8</ele>
        <time>2013-10-26T09:05:23Z</time>
      </trkpt>
      <trkpt lat="28.37652" lon="83.58611">
        <ele>1300.8</ele>
        <time>2013-10-26T09:05:25Z</time>
      </trkpt>
      <trkpt lat="28.37652" lon="83.58618">
        <ele>1300.8</ele>
        <time>2013-10-26T09:05:30Z</time>
      </trkpt>
      <trkpt lat="28.37651" lon="83.58626">
        <ele>1300.8</ele>
        <time>2013-10-26T09:05:36Z</time>
      </trkpt>
      <trkpt lat="28.37651" lon="83.58636">
        <ele>1300.8</ele>
        <time>2013-10-26T09:05:45Z</time>
      </trkpt>
      <trkpt lat="28.37652" lon="83.58649">
        <ele>1299.84</ele>
        <time>2013-10-26T09:05:58Z</time>
      </trkpt>
      <trkpt lat="28.37654" lon="83.58658">
        <ele>1298.88</ele>
        <time>2013-10-26T09:06:07Z</time>
      </trkpt>
      <trkpt lat="28.37657" lon="83.58671">
        <ele>1297.92</ele>
        <time>2013-10-26T09:06:14Z</time>
      </trkpt>
      <trkpt lat="28.37661" lon="83.58684">
        <ele>1297.44</ele>
        <time>2013-10-26T09:06:25Z</time>
      </trkpt>
      <trkpt lat="28.37661" lon="83.58692">
        <ele>1296.96</ele>
        <time>2013-10-26T09:06:29Z</time>
      </trkpt>
      <trkpt lat="28.37663" lon="83.58701">
        <ele>1297.44</ele>
        <time>2013-10-26T09:06:37Z</time>
      </trkpt>
      <trkpt lat="28.37665" lon="83.58708">
        <ele>1296.48</ele>
        <time>2013-10-26T09:06:45Z</time>
      </trkpt>
      <trkpt lat="28.37682" lon="83.58707">
        <ele>1296.96</ele>
        <time>2013-10-26T09:06:58Z</time>
      </trkpt>
      <trkpt lat="28.37695" lon="83.58705">
        <ele>1296.96</ele>
        <time>2013-10-26T09:07:11Z</time>
      </trkpt>
      <trkpt lat="28.37712" lon="83.58706">
        <ele>1297.44</ele>
        <time>2013-10-26T09:07:26Z</time>
      </trkpt>
      <trkpt lat="28.37712" lon="83.58706">
        <ele>1297.44</ele>
        <time>2013-10-26T09:07:27Z</time>
      </trkpt>
      <trkpt lat="28.37716" lon="83.58708">
        <ele>1297.44</ele>
        <time>2013-10-26T09:07:31Z</time>
      </trkpt>
      <trkpt lat="28.37723" lon="83.58711">
        <ele>1297.92</ele>
        <time>2013-10-26T09:07:38Z</time>
      </trkpt>
      <trkpt lat="28.37729" lon="83.58718">
        <ele>1297.92</ele>
        <time>2013-10-26T09:07:47Z</time>
      </trkpt>
      <trkpt lat="28.37731" lon="83.58724">
        <ele>1299.84</ele>
        <time>2013-10-26T09:08:01Z</time>
      </trkpt>
      <trkpt lat="28.37729" lon="83.58728">
        <ele>1301.76</ele>
        <time>2013-10-26T09:08:15Z</time>
      </trkpt>
      <trkpt lat="28.37726" lon="83.58734">
        <ele>1303.69</ele>
        <time>2013-10-26T09:08:28Z</time>
      </trkpt>
      <trkpt lat="28.37723" lon="83.58739">
        <ele>1306.09</ele>
        <time>2013-10-26T09:08:40Z</time>
      </trkpt>
      <trkpt lat="28.37721" lon="83.58745">
        <ele>1307.05</ele>
        <time>2013-10-26T09:08:52Z</time>
      </trkpt>
      <trkpt lat="28.37718" lon="83.58745">
        <ele>1309.93</ele>
        <time>2013-10-26T09:09:09Z</time>
      </trkpt>
      <trkpt lat="28.37716" lon="83.58748">
        <ele>1311.38</ele>
        <time>2013-10-26T09:09:18Z</time>
      </trkpt>
      <trkpt lat="28.37715" lon="83.5875">
        <ele>1313.3</ele>
        <time>2013-10-26T09:09:34Z</time>
      </trkpt>
      <trkpt lat="28.37714" lon="83.58753">
        <ele>1315.22</ele>
        <time>2013-10-26T09:09:48Z</time>
      </trkpt>
      <trkpt lat="28.37713" lon="83.58755">
        <ele>1316.18</ele>
        <time>2013-10-26T09:10:03Z</time>
      </trkpt>
      <trkpt lat="28.37712" lon="83.58758">
        <ele>1319.55</ele>
        <time>2013-10-26T09:10:23Z</time>
      </trkpt>
      <trkpt lat="28.3771" lon="83.58762">
        <ele>1320.51</ele>
        <time>2013-10-26T09:10:44Z</time>
      </trkpt>
      <trkpt lat="28.377" lon="83.58773">
        <ele>1322.43</ele>
        <time>2013-10-26T09:10:59Z</time>
      </trkpt>
      <trkpt lat="28.37697" lon="83.58779">
        <ele>1323.87</ele>
        <time>2013-10-26T09:11:13Z</time>
      </trkpt>
      <trkpt lat="28.37696" lon="83.58782">
        <ele>1325.31</ele>
        <time>2013-10-26T09:11:23Z</time>
      </trkpt>
      <trkpt lat="28.37697" lon="83.58782">
        <ele>1325.8</ele>
        <time>2013-10-26T09:11:44Z</time>
      </trkpt>
      <trkpt lat="28.37698" lon="83.58782">
        <ele>1325.31</ele>
        <time>2013-10-26T09:12:03Z</time>
      </trkpt>
      <trkpt lat="28.37696" lon="83.58789">
        <ele>1327.72</ele>
        <time>2013-10-26T09:12:13Z</time>
      </trkpt>
      <trkpt lat="28.37696" lon="83.58791">
        <ele>1329.16</ele>
        <time>2013-10-26T09:12:33Z</time>
      </trkpt>
      <trkpt lat="28.37696" lon="83.58793">
        <ele>1329.16</ele>
        <time>2013-10-26T09:12:53Z</time>
      </trkpt>
      <trkpt lat="28.37697" lon="83.58795">
        <ele>1329.64</ele>
        <time>2013-10-26T09:13:15Z</time>
      </trkpt>
      <trkpt lat="28.37697" lon="83.58795">
        <ele>1329.16</ele>
        <time>2013-10-26T09:13:38Z</time>
      </trkpt>
      <trkpt lat="28.37697" lon="83.58795">
        <ele>1329.64</ele>
        <time>2013-10-26T09:14:08Z</time>
      </trkpt>
      <trkpt lat="28.37696" lon="83.58802">
        <ele>1331.56</ele>
        <time>2013-10-26T09:14:22Z</time>
      </trkpt>
      <trkpt lat="28.37691" lon="83.58811">
        <ele>1333.97</ele>
        <time>2013-10-26T09:14:37Z</time>
      </trkpt>
      <trkpt lat="28.37686" lon="83.58818">
        <ele>1336.85</ele>
        <time>2013-10-26T09:14:51Z</time>
      </trkpt>
      <trkpt lat="28.37683" lon="83.58822">
        <ele>1339.25</ele>
        <time>2013-10-26T09:15:03Z</time>
      </trkpt>
      <trkpt lat="28.3768" lon="83.58827">
        <ele>1341.66</ele>
        <time>2013-10-26T09:15:18Z</time>
      </trkpt>
      <trkpt lat="28.3768" lon="83.58828">
        <ele>1342.62</ele>
        <time>2013-10-26T09:15:36Z</time>
      </trkpt>
      <trkpt lat="28.37678" lon="83.5883">
        <ele>1344.54</ele>
        <time>2013-10-26T09:15:52Z</time>
      </trkpt>
      <trkpt lat="28.37678" lon="83.58835">
        <ele>1345.5</ele>
        <time>2013-10-26T09:16:07Z</time>
      </trkpt>
      <trkpt lat="28.37678" lon="83.58839">
        <ele>1347.91</ele>
        <time>2013-10-26T09:16:19Z</time>
      </trkpt>
      <trkpt lat="28.37684" lon="83.58845">
        <ele>1348.87</ele>
        <time>2013-10-26T09:16:28Z</time>
      </trkpt>
      <trkpt lat="28.37687" lon="83.58847">
        <ele>1348.87</ele>
        <time>2013-10-26T09:16:31Z</time>
      </trkpt>
      <trkpt lat="28.377" lon="83.58854">
        <ele>1349.35</ele>
        <time>2013-10-26T09:16:44Z</time>
      </trkpt>
      <trkpt lat="28.37706" lon="83.5886">
        <ele>1349.35</ele>
        <time>2013-10-26T09:16:54Z</time>
      </trkpt>
      <trkpt lat="28.37707" lon="83.58862">
        <ele>1349.35</ele>
        <time>2013-10-26T09:16:56Z</time>
      </trkpt>
      <trkpt lat="28.37709" lon="83.58863">
        <ele>1348.87</ele>
        <time>2013-10-26T09:16:58Z</time>
      </trkpt>
      <trkpt lat="28.37715" lon="83.58871">
        <ele>1350.31</ele>
        <time>2013-10-26T09:17:09Z</time>
      </trkpt>
      <trkpt lat="28.37711" lon="83.58877">
        <ele>1352.23</ele>
        <time>2013-10-26T09:17:21Z</time>
      </trkpt>
      <trkpt lat="28.37707" lon="83.5888">
        <ele>1353.19</ele>
        <time>2013-10-26T09:17:33Z</time>
      </trkpt>
      <trkpt lat="28.37702" lon="83.58882">
        <ele>1356.08</ele>
        <time>2013-10-26T09:17:44Z</time>
      </trkpt>
      <trkpt lat="28.37701" lon="83.58882">
        <ele>1356.56</ele>
        <time>2013-10-26T09:18:01Z</time>
      </trkpt>
      <trkpt lat="28.37701" lon="83.58888">
        <ele>1358</ele>
        <time>2013-10-26T09:18:14Z</time>
      </trkpt>
      <trkpt lat="28.377" lon="83.5889">
        <ele>1358.96</ele>
        <time>2013-10-26T09:18:32Z</time>
      </trkpt>
      <trkpt lat="28.37696" lon="83.58893">
        <ele>1361.36</ele>
        <time>2013-10-26T09:18:45Z</time>
      </trkpt>
      <trkpt lat="28.37695" lon="83.58899">
        <ele>1362.81</ele>
        <time>2013-10-26T09:18:58Z</time>
      </trkpt>
      <trkpt lat="28.37693" lon="83.58902">
        <ele>1363.77</ele>
        <time>2013-10-26T09:19:12Z</time>
      </trkpt>
      <trkpt lat="28.37693" lon="83.58906">
        <ele>1365.69</ele>
        <time>2013-10-26T09:19:23Z</time>
      </trkpt>
      <trkpt lat="28.37692" lon="83.58913">
        <ele>1368.09</ele>
        <time>2013-10-26T09:19:34Z</time>
      </trkpt>
      <trkpt lat="28.37689" lon="83.58915">
        <ele>1370.02</ele>
        <time>2013-10-26T09:19:45Z</time>
      </trkpt>
      <trkpt lat="28.37684" lon="83.58917">
        <ele>1372.42</ele>
        <time>2013-10-26T09:19:57Z</time>
      </trkpt>
      <trkpt lat="28.37681" lon="83.58918">
        <ele>1374.34</ele>
        <time>2013-10-26T09:20:12Z</time>
      </trkpt>
      <trkpt lat="28.37679" lon="83.5892">
        <ele>1376.26</ele>
        <time>2013-10-26T09:20:22Z</time>
      </trkpt>
      <trkpt lat="28.37679" lon="83.5892">
        <ele>1377.23</ele>
        <time>2013-10-26T09:20:35Z</time>
      </trkpt>
      <trkpt lat="28.37679" lon="83.58919">
        <ele>1377.23</ele>
        <time>2013-10-26T09:20:58Z</time>
      </trkpt>
      <trkpt lat="28.37678" lon="83.5892">
        <ele>1378.67</ele>
        <time>2013-10-26T09:21:19Z</time>
      </trkpt>
      <trkpt lat="28.37679" lon="83.58919">
        <ele>1378.67</ele>
        <time>2013-10-26T09:21:38Z</time>
      </trkpt>
      <trkpt lat="28.37679" lon="83.58918">
        <ele>1379.63</ele>
        <time>2013-10-26T09:22:00Z</time>
      </trkpt>
      <trkpt lat="28.37678" lon="83.58919">
        <ele>1379.63</ele>
        <time>2013-10-26T09:22:20Z</time>
      </trkpt>
      <trkpt lat="28.37677" lon="83.58919">
        <ele>1379.63</ele>
        <time>2013-10-26T09:22:41Z</time>
      </trkpt>
      <trkpt lat="28.37677" lon="83.58919">
        <ele>1379.63</ele>
        <time>2013-10-26T09:22:59Z</time>
      </trkpt>
      <trkpt lat="28.37677" lon="83.58918">
        <ele>1380.11</ele>
        <time>2013-10-26T09:23:20Z</time>
      </trkpt>
      <trkpt lat="28.37678" lon="83.58917">
        <ele>1380.11</ele>
        <time>2013-10-26T09:23:45Z</time>
      </trkpt>
      <trkpt lat="28.37677" lon="83.58917">
        <ele>1380.59</ele>
        <time>2013-10-26T09:24:06Z</time>
      </trkpt>
      <trkpt lat="28.37677" lon="83.58917">
        <ele>1380.59</ele>
        <time>2013-10-26T09:24:28Z</time>
      </trkpt>
      <trkpt lat="28.37676" lon="83.58919">
        <ele>1381.07</ele>
        <time>2013-10-26T09:24:48Z</time>
      </trkpt>
      <trkpt lat="28.37677" lon="83.58918">
        <ele>1380.59</ele>
        <time>2013-10-26T09:25:04Z</time>
      </trkpt>
      <trkpt lat="28.37677" lon="83.58917">
        <ele>1380.59</ele>
        <time>2013-10-26T09:25:33Z</time>
      </trkpt>
      <trkpt lat="28.37677" lon="83.58917">
        <ele>1381.07</ele>
        <time>2013-10-26T09:26:06Z</time>
      </trkpt>
      <trkpt lat="28.37677" lon="83.58916">
        <ele>1381.55</ele>
        <time>2013-10-26T09:26:49Z</time>
      </trkpt>
      <trkpt lat="28.37677" lon="83.58917">
        <ele>1382.03</ele>
        <time>2013-10-26T09:27:26Z</time>
      </trkpt>
      <trkpt lat="28.37677" lon="83.58917">
        <ele>1382.03</ele>
        <time>2013-10-26T09:27:56Z</time>
      </trkpt>
      <trkpt lat="28.37678" lon="83.58917">
        <ele>1382.51</ele>
        <time>2013-10-26T09:28:32Z</time>
      </trkpt>
      <trkpt lat="28.37677" lon="83.58916">
        <ele>1382.99</ele>
        <time>2013-10-26T09:29:01Z</time>
      </trkpt>
      <trkpt lat="28.37677" lon="83.58915">
        <ele>1381.55</ele>
        <time>2013-10-26T09:29:37Z</time>
      </trkpt>
      <trkpt lat="28.37677" lon="83.58916">
        <ele>1385.4</ele>
        <time>2013-10-26T09:29:38Z</time>
      </trkpt>
      <trkpt lat="28.37678" lon="83.58917">
        <ele>1379.63</ele>
        <time>2013-10-26T09:29:47Z</time>
      </trkpt>
      <trkpt lat="28.37678" lon="83.58917">
        <ele>1388.28</ele>
        <time>2013-10-26T09:29:48Z</time>
      </trkpt>
      <trkpt lat="28.37678" lon="83.58917">
        <ele>1384.44</ele>
        <time>2013-10-26T09:29:49Z</time>
      </trkpt>
      <trkpt lat="28.37678" lon="83.58918">
        <ele>1383.96</ele>
        <time>2013-10-26T09:30:04Z</time>
      </trkpt>
      <trkpt lat="28.37677" lon="83.58919">
        <ele>1387.32</ele>
        <time>2013-10-26T09:30:21Z</time>
      </trkpt>
      <trkpt lat="28.37677" lon="83.58919">
        <ele>1383.47</ele>
        <time>2013-10-26T09:30:23Z</time>
      </trkpt>
      <trkpt lat="28.37676" lon="83.58921">
        <ele>1378.67</ele>
        <time>2013-10-26T09:30:45Z</time>
      </trkpt>
      <trkpt lat="28.37676" lon="83.58921">
        <ele>1390.68</ele>
        <time>2013-10-26T09:30:46Z</time>
      </trkpt>
      <trkpt lat="28.37676" lon="83.58921">
        <ele>1385.88</ele>
        <time>2013-10-26T09:30:47Z</time>
      </trkpt>
      <trkpt lat="28.37676" lon="83.58921">
        <ele>1382.03</ele>
        <time>2013-10-26T09:30:54Z</time>
      </trkpt>
      <trkpt lat="28.37676" lon="83.58921">
        <ele>1388.76</ele>
        <time>2013-10-26T09:30:55Z</time>
      </trkpt>
      <trkpt lat="28.37676" lon="83.58921">
        <ele>1385.4</ele>
        <time>2013-10-26T09:30:57Z</time>
      </trkpt>
      <trkpt lat="28.37676" lon="83.58921">
        <ele>1381.55</ele>
        <time>2013-10-26T09:31:05Z</time>
      </trkpt>
      <trkpt lat="28.37676" lon="83.58921">
        <ele>1389.72</ele>
        <time>2013-10-26T09:31:06Z</time>
      </trkpt>
      <trkpt lat="28.37677" lon="83.58921">
        <ele>1385.88</ele>
        <time>2013-10-26T09:31:07Z</time>
      </trkpt>
      <trkpt lat="28.37677" lon="83.58921">
        <ele>1382.03</ele>
        <time>2013-10-26T09:31:09Z</time>
      </trkpt>
      <trkpt lat="28.37676" lon="83.58921">
        <ele>1386.84</ele>
        <time>2013-10-26T09:31:10Z</time>
      </trkpt>
      <trkpt lat="28.37676" lon="83.58921">
        <ele>1382.51</ele>
        <time>2013-10-26T09:31:11Z</time>
      </trkpt>
      <trkpt lat="28.37676" lon="83.58921">
        <ele>1389.72</ele>
        <time>2013-10-26T09:31:13Z</time>
      </trkpt>
      <trkpt lat="28.37676" lon="83.58921">
        <ele>1385.4</ele>
        <time>2013-10-26T09:31:14Z</time>
      </trkpt>
      <trkpt lat="28.37676" lon="83.58921">
        <ele>1380.59</ele>
        <time>2013-10-26T09:31:24Z</time>
      </trkpt>
      <trkpt lat="28.37676" lon="83.58921">
        <ele>1389.72</ele>
        <time>2013-10-26T09:31:25Z</time>
      </trkpt>
      <trkpt lat="28.37676" lon="83.58921">
        <ele>1385.88</ele>
        <time>2013-10-26T09:31:26Z</time>
      </trkpt>
      <trkpt lat="28.37676" lon="83.58922">
        <ele>1381.55</ele>
        <time>2013-10-26T09:31:37Z</time>
      </trkpt>
      <trkpt lat="28.37676" lon="83.58922">
        <ele>1383.47</ele>
        <time>2013-10-26T09:31:38Z</time>
      </trkpt>
      <trkpt lat="28.37676" lon="83.58922">
        <ele>1390.2</ele>
        <time>2013-10-26T09:31:41Z</time>
      </trkpt>
      <trkpt lat="28.37676" lon="83.58922">
        <ele>1386.36</ele>
        <time>2013-10-26T09:31:42Z</time>
      </trkpt>
      <trkpt lat="28.37677" lon="83.58922">
        <ele>1385.4</ele>
        <time>2013-10-26T09:32:00Z</time>
      </trkpt>
      <trkpt lat="28.37676" lon="83.58922">
        <ele>1385.4</ele>
        <time>2013-10-26T09:32:16Z</time>
      </trkpt>
      <trkpt lat="28.37676" lon="83.58922">
        <ele>1385.88</ele>
        <time>2013-10-26T09:32:39Z</time>
      </trkpt>
      <trkpt lat="28.37676" lon="83.58922">
        <ele>1385.88</ele>
        <time>2013-10-26T09:33:04Z</time>
      </trkpt>
      <trkpt lat="28.37676" lon="83.58921">
        <ele>1385.88</ele>
        <time>2013-10-26T09:33:20Z</time>
      </trkpt>
      <trkpt lat="28.37675" lon="83.58923">
        <ele>1386.84</ele>
        <time>2013-10-26T09:33:41Z</time>
      </trkpt>
      <trkpt lat="28.37673" lon="83.58926">
        <ele>1389.24</ele>
        <time>2013-10-26T09:33:57Z</time>
      </trkpt>
      <trkpt lat="28.37669" lon="83.58926">
        <ele>1391.17</ele>
        <time>2013-10-26T09:34:12Z</time>
      </trkpt>
      <trkpt lat="28.37668" lon="83.58929">
        <ele>1392.61</ele>
        <time>2013-10-26T09:34:28Z</time>
      </trkpt>
      <trkpt lat="28.37663" lon="83.58931">
        <ele>1394.53</ele>
        <time>2013-10-26T09:34:40Z</time>
      </trkpt>
      <trkpt lat="28.37657" lon="83.58933">
        <ele>1396.93</ele>
        <time>2013-10-26T09:34:56Z</time>
      </trkpt>
      <trkpt lat="28.37657" lon="83.58938">
        <ele>1398.37</ele>
        <time>2013-10-26T09:35:10Z</time>
      </trkpt>
      <trkpt lat="28.37655" lon="83.58939">
        <ele>1399.82</ele>
        <time>2013-10-26T09:35:26Z</time>
      </trkpt>
      <trkpt lat="28.37653" lon="83.58945">
        <ele>1402.7</ele>
        <time>2013-10-26T09:35:46Z</time>
      </trkpt>
      <trkpt lat="28.37652" lon="83.58952">
        <ele>1405.1</ele>
        <time>2013-10-26T09:36:03Z</time>
      </trkpt>
      <trkpt lat="28.3765" lon="83.58962">
        <ele>1407.51</ele>
        <time>2013-10-26T09:36:18Z</time>
      </trkpt>
      <trkpt lat="28.3765" lon="83.58967">
        <ele>1408.95</ele>
        <time>2013-10-26T09:36:32Z</time>
      </trkpt>
      <trkpt lat="28.37654" lon="83.58975">
        <ele>1409.43</ele>
        <time>2013-10-26T09:36:46Z</time>
      </trkpt>
      <trkpt lat="28.37658" lon="83.58986">
        <ele>1409.91</ele>
        <time>2013-10-26T09:37:01Z</time>
      </trkpt>
      <trkpt lat="28.37659" lon="83.58993">
        <ele>1411.83</ele>
        <time>2013-10-26T09:37:15Z</time>
      </trkpt>
      <trkpt lat="28.37665" lon="83.59002">
        <ele>1412.79</ele>
        <time>2013-10-26T09:37:28Z</time>
      </trkpt>
      <trkpt lat="28.37671" lon="83.59007">
        <ele>1412.79</ele>
        <time>2013-10-26T09:37:37Z</time>
      </trkpt>
      <trkpt lat="28.37674" lon="83.59013">
        <ele>1413.76</ele>
        <time>2013-10-26T09:37:49Z</time>
      </trkpt>
      <trkpt lat="28.3769" lon="83.59014">
        <ele>1415.2</ele>
        <time>2013-10-26T09:38:04Z</time>
      </trkpt>
      <trkpt lat="28.37701" lon="83.59011">
        <ele>1415.2</ele>
        <time>2013-10-26T09:38:19Z</time>
      </trkpt>
      <trkpt lat="28.37709" lon="83.59014">
        <ele>1416.64</ele>
        <time>2013-10-26T09:38:33Z</time>
      </trkpt>
      <trkpt lat="28.37713" lon="83.59016">
        <ele>1418.56</ele>
        <time>2013-10-26T09:38:47Z</time>
      </trkpt>
      <trkpt lat="28.37718" lon="83.59022">
        <ele>1420.97</ele>
        <time>2013-10-26T09:39:01Z</time>
      </trkpt>
      <trkpt lat="28.37719" lon="83.59026">
        <ele>1422.41</ele>
        <time>2013-10-26T09:39:15Z</time>
      </trkpt>
      <trkpt lat="28.37718" lon="83.59032">
        <ele>1423.85</ele>
        <time>2013-10-26T09:39:28Z</time>
      </trkpt>
      <trkpt lat="28.37716" lon="83.59039">
        <ele>1425.77</ele>
        <time>2013-10-26T09:39:42Z</time>
      </trkpt>
      <trkpt lat="28.37715" lon="83.59045">
        <ele>1426.73</ele>
        <time>2013-10-26T09:39:57Z</time>
      </trkpt>
      <trkpt lat="28.37713" lon="83.59049">
        <ele>1428.66</ele>
        <time>2013-10-26T09:40:12Z</time>
      </trkpt>
      <trkpt lat="28.3771" lon="83.59057">
        <ele>1430.1</ele>
        <time>2013-10-26T09:40:24Z</time>
      </trkpt>
      <trkpt lat="28.37705" lon="83.59064">
        <ele>1431.54</ele>
        <time>2013-10-26T09:40:37Z</time>
      </trkpt>
      <trkpt lat="28.37701" lon="83.59071">
        <ele>1432.98</ele>
        <time>2013-10-26T09:40:50Z</time>
      </trkpt>
      <trkpt lat="28.377" lon="83.59076">
        <ele>1434.42</ele>
        <time>2013-10-26T09:41:05Z</time>
      </trkpt>
      <trkpt lat="28.37696" lon="83.59081">
        <ele>1435.39</ele>
        <time>2013-10-26T09:41:18Z</time>
      </trkpt>
      <trkpt lat="28.37694" lon="83.59086">
        <ele>1437.31</ele>
        <time>2013-10-26T09:41:28Z</time>
      </trkpt>
      <trkpt lat="28.37692" lon="83.59092">
        <ele>1438.27</ele>
        <time>2013-10-26T09:41:40Z</time>
      </trkpt>
      <trkpt lat="28.3769" lon="83.59096">
        <ele>1440.19</ele>
        <time>2013-10-26T09:41:53Z</time>
      </trkpt>
      <trkpt lat="28.37688" lon="83.59099">
        <ele>1440.67</ele>
        <time>2013-10-26T09:41:58Z</time>
      </trkpt>
      <trkpt lat="28.37685" lon="83.59105">
        <ele>1442.6</ele>
        <time>2013-10-26T09:42:10Z</time>
      </trkpt>
      <trkpt lat="28.3768" lon="83.5911">
        <ele>1444.04</ele>
        <time>2013-10-26T09:42:24Z</time>
      </trkpt>
      <trkpt lat="28.37678" lon="83.59112">
        <ele>1445</ele>
        <time>2013-10-26T09:42:37Z</time>
      </trkpt>
      <trkpt lat="28.37675" lon="83.59119">
        <ele>1447.4</ele>
        <time>2013-10-26T09:42:54Z</time>
      </trkpt>
      <trkpt lat="28.37675" lon="83.5912">
        <ele>1447.4</ele>
        <time>2013-10-26T09:43:05Z</time>
      </trkpt>
      <trkpt lat="28.37673" lon="83.59122">
        <ele>1447.88</ele>
        <time>2013-10-26T09:43:21Z</time>
      </trkpt>
      <trkpt lat="28.37672" lon="83.59126">
        <ele>1449.81</ele>
        <time>2013-10-26T09:43:36Z</time>
      </trkpt>
      <trkpt lat="28.37673" lon="83.59136">
        <ele>1451.25</ele>
        <time>2013-10-26T09:43:51Z</time>
      </trkpt>
      <trkpt lat="28.37676" lon="83.59145">
        <ele>1453.17</ele>
        <time>2013-10-26T09:44:08Z</time>
      </trkpt>
      <trkpt lat="28.37676" lon="83.59147">
        <ele>1454.61</ele>
        <time>2013-10-26T09:44:24Z</time>
      </trkpt>
      <trkpt lat="28.37678" lon="83.59156">
        <ele>1456.05</ele>
        <time>2013-10-26T09:44:36Z</time>
      </trkpt>
      <trkpt lat="28.37679" lon="83.5916">
        <ele>1457.5</ele>
        <time>2013-10-26T09:44:51Z</time>
      </trkpt>
      <trkpt lat="28.37681" lon="83.59161">
        <ele>1459.42</ele>
        <time>2013-10-26T09:45:13Z</time>
      </trkpt>
      <trkpt lat="28.3768" lon="83.59167">
        <ele>1461.82</ele>
        <time>2013-10-26T09:45:29Z</time>
      </trkpt>
      <trkpt lat="28.37679" lon="83.59171">
        <ele>1464.23</ele>
        <time>2013-10-26T09:45:46Z</time>
      </trkpt>
      <trkpt lat="28.37678" lon="83.59174">
        <ele>1465.19</ele>
        <time>2013-10-26T09:46:06Z</time>
      </trkpt>
      <trkpt lat="28.37676" lon="83.59178">
        <ele>1467.11</ele>
        <time>2013-10-26T09:46:18Z</time>
      </trkpt>
      <trkpt lat="28.37675" lon="83.59179">
        <ele>1469.03</ele>
        <time>2013-10-26T09:46:34Z</time>
      </trkpt>
      <trkpt lat="28.37674" lon="83.59185">
        <ele>1471.44</ele>
        <time>2013-10-26T09:46:51Z</time>
      </trkpt>
      <trkpt lat="28.37673" lon="83.59187">
        <ele>1472.88</ele>
        <time>2013-10-26T09:47:10Z</time>
      </trkpt>
      <trkpt lat="28.37673" lon="83.59193">
        <ele>1475.28</ele>
        <time>2013-10-26T09:47:30Z</time>
      </trkpt>
      <trkpt lat="28.37674" lon="83.59197">
        <ele>1475.76</ele>
        <time>2013-10-26T09:47:47Z</time>
      </trkpt>
      <trkpt lat="28.37679" lon="83.59203">
        <ele>1477.68</ele>
        <time>2013-10-26T09:48:02Z</time>
      </trkpt>
      <trkpt lat="28.37679" lon="83.59204">
        <ele>1478.65</ele>
        <time>2013-10-26T09:48:26Z</time>
      </trkpt>
      <trkpt lat="28.3767" lon="83.59206">
        <ele>1481.05</ele>
        <time>2013-10-26T09:48:43Z</time>
      </trkpt>
      <trkpt lat="28.37666" lon="83.59206">
        <ele>1482.49</ele>
        <time>2013-10-26T09:48:50Z</time>
      </trkpt>
      <trkpt lat="28.37661" lon="83.59198">
        <ele>1482.97</ele>
        <time>2013-10-26T09:49:04Z</time>
      </trkpt>
      <trkpt lat="28.37653" lon="83.59204">
        <ele>1484.89</ele>
        <time>2013-10-26T09:49:17Z</time>
      </trkpt>
      <trkpt lat="28.37648" lon="83.59206">
        <ele>1487.3</ele>
        <time>2013-10-26T09:49:33Z</time>
      </trkpt>
      <trkpt lat="28.37652" lon="83.59211">
        <ele>1488.26</ele>
        <time>2013-10-26T09:49:45Z</time>
      </trkpt>
      <trkpt lat="28.37652" lon="83.5921">
        <ele>1488.74</ele>
        <time>2013-10-26T09:50:05Z</time>
      </trkpt>
      <trkpt lat="28.37653" lon="83.59209">
        <ele>1489.22</ele>
        <time>2013-10-26T09:50:21Z</time>
      </trkpt>
      <trkpt lat="28.37654" lon="83.59211">
        <ele>1489.22</ele>
        <time>2013-10-26T09:50:44Z</time>
      </trkpt>
      <trkpt lat="28.37653" lon="83.59211">
        <ele>1489.7</ele>
        <time>2013-10-26T09:51:06Z</time>
      </trkpt>
      <trkpt lat="28.37653" lon="83.59211">
        <ele>1489.7</ele>
        <time>2013-10-26T09:51:23Z</time>
      </trkpt>
      <trkpt lat="28.3766" lon="83.59216">
        <ele>1490.18</ele>
        <time>2013-10-26T09:51:36Z</time>
      </trkpt>
      <trkpt lat="28.37668" lon="83.59219">
        <ele>1491.62</ele>
        <time>2013-10-26T09:51:45Z</time>
      </trkpt>
      <trkpt lat="28.37678" lon="83.59223">
        <ele>1493.06</ele>
        <time>2013-10-26T09:51:59Z</time>
      </trkpt>
      <trkpt lat="28.37681" lon="83.59226">
        <ele>1494.03</ele>
        <time>2013-10-26T09:52:05Z</time>
      </trkpt>
      <trkpt lat="28.37694" lon="83.59228">
        <ele>1495.95</ele>
        <time>2013-10-26T09:52:24Z</time>
      </trkpt>
      <trkpt lat="28.37694" lon="83.59228">
        <ele>1496.43</ele>
        <time>2013-10-26T09:52:25Z</time>
      </trkpt>
      <trkpt lat="28.37698" lon="83.59229">
        <ele>1496.91</ele>
        <time>2013-10-26T09:52:28Z</time>
      </trkpt>
      <trkpt lat="28.37703" lon="83.59232">
        <ele>1497.87</ele>
        <time>2013-10-26T09:52:33Z</time>
      </trkpt>
      <trkpt lat="28.37706" lon="83.59233">
        <ele>1498.35</ele>
        <time>2013-10-26T09:52:36Z</time>
      </trkpt>
      <trkpt lat="28.37715" lon="83.59242">
        <ele>1499.31</ele>
        <time>2013-10-26T09:52:49Z</time>
      </trkpt>
      <trkpt lat="28.37721" lon="83.59245">
        <ele>1499.79</ele>
        <time>2013-10-26T09:52:56Z</time>
      </trkpt>
      <trkpt lat="28.37726" lon="83.59252">
        <ele>1500.27</ele>
        <time>2013-10-26T09:53:04Z</time>
      </trkpt>
      <trkpt lat="28.37722" lon="83.59261">
        <ele>1502.2</ele>
        <time>2013-10-26T09:53:18Z</time>
      </trkpt>
      <trkpt lat="28.37721" lon="83.59261">
        <ele>1503.16</ele>
        <time>2013-10-26T09:53:19Z</time>
      </trkpt>
      <trkpt lat="28.37714" lon="83.59259">
        <ele>1503.64</ele>
        <time>2013-10-26T09:53:31Z</time>
      </trkpt>
      <trkpt lat="28.37715" lon="83.59263">
        <ele>1505.08</ele>
        <time>2013-10-26T09:53:49Z</time>
      </trkpt>
      <trkpt lat="28.37717" lon="83.59265">
        <ele>1505.56</ele>
        <time>2013-10-26T09:53:52Z</time>
      </trkpt>
      <trkpt lat="28.37719" lon="83.59274">
        <ele>1507</ele>
        <time>2013-10-26T09:54:08Z</time>
      </trkpt>
      <trkpt lat="28.37717" lon="83.59278">
        <ele>1508.45</ele>
        <time>2013-10-26T09:54:17Z</time>
      </trkpt>
      <trkpt lat="28.37718" lon="83.59288">
        <ele>1509.89</ele>
        <time>2013-10-26T09:54:34Z</time>
      </trkpt>
      <trkpt lat="28.37715" lon="83.5929">
        <ele>1511.33</ele>
        <time>2013-10-26T09:54:50Z</time>
      </trkpt>
      <trkpt lat="28.37716" lon="83.59295">
        <ele>1512.77</ele>
        <time>2013-10-26T09:55:06Z</time>
      </trkpt>
      <trkpt lat="28.37716" lon="83.59297">
        <ele>1516.14</ele>
        <time>2013-10-26T09:55:20Z</time>
      </trkpt>
      <trkpt lat="28.37719" lon="83.59301">
        <ele>1516.62</ele>
        <time>2013-10-26T09:55:31Z</time>
      </trkpt>
      <trkpt lat="28.37721" lon="83.59307">
        <ele>1516.62</ele>
        <time>2013-10-26T09:55:46Z</time>
      </trkpt>
      <trkpt lat="28.3772" lon="83.59313">
        <ele>1518.06</ele>
        <time>2013-10-26T09:56:00Z</time>
      </trkpt>
      <trkpt lat="28.37721" lon="83.59316">
        <ele>1518.06</ele>
        <time>2013-10-26T09:56:21Z</time>
      </trkpt>
      <trkpt lat="28.37722" lon="83.59318">
        <ele>1519.02</ele>
        <time>2013-10-26T09:56:35Z</time>
      </trkpt>
      <trkpt lat="28.37723" lon="83.59318">
        <ele>1519.98</ele>
        <time>2013-10-26T09:56:51Z</time>
      </trkpt>
      <trkpt lat="28.37723" lon="83.59319">
        <ele>1520.46</ele>
        <time>2013-10-26T09:57:11Z</time>
      </trkpt>
      <trkpt lat="28.37723" lon="83.59319">
        <ele>1519.98</ele>
        <time>2013-10-26T09:57:36Z</time>
      </trkpt>
      <trkpt lat="28.37722" lon="83.59321">
        <ele>1520.46</ele>
        <time>2013-10-26T09:57:52Z</time>
      </trkpt>
      <trkpt lat="28.37722" lon="83.59321">
        <ele>1520.46</ele>
        <time>2013-10-26T09:58:17Z</time>
      </trkpt>
      <trkpt lat="28.37723" lon="83.59321">
        <ele>1520.46</ele>
        <time>2013-10-26T09:58:40Z</time>
      </trkpt>
      <trkpt lat="28.37728" lon="83.59323">
        <ele>1520.46</ele>
        <time>2013-10-26T09:59:15Z</time>
      </trkpt>
      <trkpt lat="28.37732" lon="83.59323">
        <ele>1520.46</ele>
        <time>2013-10-26T09:59:44Z</time>
      </trkpt>
      <trkpt lat="28.37733" lon="83.59322">
        <ele>1520.46</ele>
        <time>2013-10-26T10:00:13Z</time>
      </trkpt>
      <trkpt lat="28.37733" lon="83.59322">
        <ele>1520.46</ele>
        <time>2013-10-26T10:00:38Z</time>
      </trkpt>
      <trkpt lat="28.37733" lon="83.59323">
        <ele>1520.46</ele>
        <time>2013-10-26T10:00:51Z</time>
      </trkpt>
      <trkpt lat="28.37732" lon="83.59324">
        <ele>1520.94</ele>
        <time>2013-10-26T10:01:12Z</time>
      </trkpt>
      <trkpt lat="28.37732" lon="83.59324">
        <ele>1520.94</ele>
        <time>2013-10-26T10:01:35Z</time>
      </trkpt>
      <trkpt lat="28.37731" lon="83.59323">
        <ele>1521.42</ele>
        <time>2013-10-26T10:02:05Z</time>
      </trkpt>
      <trkpt lat="28.37731" lon="83.59323">
        <ele>1521.42</ele>
        <time>2013-10-26T10:02:31Z</time>
      </trkpt>
      <trkpt lat="28.37731" lon="83.59323">
        <ele>1521.42</ele>
        <time>2013-10-26T10:02:54Z</time>
      </trkpt>
      <trkpt lat="28.37731" lon="83.59323">
        <ele>1521.9</ele>
        <time>2013-10-26T10:03:21Z</time>
      </trkpt>
      <trkpt lat="28.37731" lon="83.59324">
        <ele>1521.9</ele>
        <time>2013-10-26T10:03:44Z</time>
      </trkpt>
      <trkpt lat="28.3773" lon="83.59324">
        <ele>1522.39</ele>
        <time>2013-10-26T10:04:06Z</time>
      </trkpt>
      <trkpt lat="28.3773" lon="83.59324">
        <ele>1521.9</ele>
        <time>2013-10-26T10:04:26Z</time>
      </trkpt>
      <trkpt lat="28.3773" lon="83.59324">
        <ele>1522.39</ele>
        <time>2013-10-26T10:04:48Z</time>
      </trkpt>
      <trkpt lat="28.3773" lon="83.59324">
        <ele>1522.87</ele>
        <time>2013-10-26T10:05:10Z</time>
      </trkpt>
      <trkpt lat="28.37729" lon="83.59324">
        <ele>1522.87</ele>
        <time>2013-10-26T10:05:33Z</time>
      </trkpt>
      <trkpt lat="28.37729" lon="83.59324">
        <ele>1523.83</ele>
        <time>2013-10-26T10:05:47Z</time>
      </trkpt>
      <trkpt lat="28.3773" lon="83.59324">
        <ele>1523.83</ele>
        <time>2013-10-26T10:06:11Z</time>
      </trkpt>
      <trkpt lat="28.3773" lon="83.59323">
        <ele>1523.83</ele>
        <time>2013-10-26T10:06:41Z</time>
      </trkpt>
      <trkpt lat="28.37729" lon="83.59323">
        <ele>1524.31</ele>
        <time>2013-10-26T10:06:59Z</time>
      </trkpt>
      <trkpt lat="28.37729" lon="83.59325">
        <ele>1524.79</ele>
        <time>2013-10-26T10:07:15Z</time>
      </trkpt>
      <trkpt lat="28.37729" lon="83.59324">
        <ele>1524.79</ele>
        <time>2013-10-26T10:07:37Z</time>
      </trkpt>
      <trkpt lat="28.37731" lon="83.59321">
        <ele>1525.27</ele>
        <time>2013-10-26T10:08:05Z</time>
      </trkpt>
      <trkpt lat="28.37732" lon="83.59321">
        <ele>1525.27</ele>
        <time>2013-10-26T10:08:31Z</time>
      </trkpt>
      <trkpt lat="28.37731" lon="83.59321">
        <ele>1525.75</ele>
        <time>2013-10-26T10:08:52Z</time>
      </trkpt>
      <trkpt lat="28.37731" lon="83.59321">
        <ele>1525.75</ele>
        <time>2013-10-26T10:09:15Z</time>
      </trkpt>
      <trkpt lat="28.37731" lon="83.59321">
        <ele>1526.23</ele>
        <time>2013-10-26T10:09:41Z</time>
      </trkpt>
      <trkpt lat="28.37731" lon="83.5932">
        <ele>1526.23</ele>
        <time>2013-10-26T10:10:09Z</time>
      </trkpt>
      <trkpt lat="28.3773" lon="83.5932">
        <ele>1526.71</ele>
        <time>2013-10-26T10:10:33Z</time>
      </trkpt>
      <trkpt lat="28.37731" lon="83.59323">
        <ele>1527.19</ele>
        <time>2013-10-26T10:10:46Z</time>
      </trkpt>
      <trkpt lat="28.37734" lon="83.5933">
        <ele>1529.11</ele>
        <time>2013-10-26T10:10:58Z</time>
      </trkpt>
      <trkpt lat="28.37735" lon="83.59337">
        <ele>1530.56</ele>
        <time>2013-10-26T10:11:12Z</time>
      </trkpt>
      <trkpt lat="28.37736" lon="83.59338">
        <ele>1530.56</ele>
        <time>2013-10-26T10:11:23Z</time>
      </trkpt>
      <trkpt lat="28.37738" lon="83.59342">
        <ele>1531.04</ele>
        <time>2013-10-26T10:11:39Z</time>
      </trkpt>
      <trkpt lat="28.37739" lon="83.59343">
        <ele>1531.04</ele>
        <time>2013-10-26T10:12:09Z</time>
      </trkpt>
      <trkpt lat="28.37738" lon="83.59346">
        <ele>1532.48</ele>
        <time>2013-10-26T10:12:23Z</time>
      </trkpt>
      <trkpt lat="28.37737" lon="83.59348">
        <ele>1533.92</ele>
        <time>2013-10-26T10:12:33Z</time>
      </trkpt>
      <trkpt lat="28.37741" lon="83.59354">
        <ele>1534.4</ele>
        <time>2013-10-26T10:12:46Z</time>
      </trkpt>
      <trkpt lat="28.3774" lon="83.59355">
        <ele>1534.88</ele>
        <time>2013-10-26T10:13:07Z</time>
      </trkpt>
      <trkpt lat="28.3774" lon="83.59356">
        <ele>1535.36</ele>
        <time>2013-10-26T10:13:28Z</time>
      </trkpt>
      <trkpt lat="28.3774" lon="83.59356">
        <ele>1535.36</ele>
        <time>2013-10-26T10:13:44Z</time>
      </trkpt>
      <trkpt lat="28.3774" lon="83.59356">
        <ele>1535.36</ele>
        <time>2013-10-26T10:14:09Z</time>
      </trkpt>
      <trkpt lat="28.3774" lon="83.59356">
        <ele>1534.88</ele>
        <time>2013-10-26T10:14:34Z</time>
      </trkpt>
      <trkpt lat="28.3774" lon="83.59356">
        <ele>1534.4</ele>
        <time>2013-10-26T10:14:35Z</time>
      </trkpt>
      <trkpt lat="28.3774" lon="83.59356">
        <ele>1535.36</ele>
        <time>2013-10-26T10:14:57Z</time>
      </trkpt>
      <trkpt lat="28.3774" lon="83.59356">
        <ele>1530.08</ele>
        <time>2013-10-26T10:15:05Z</time>
      </trkpt>
      <trkpt lat="28.3774" lon="83.59356">
        <ele>1538.73</ele>
        <time>2013-10-26T10:15:06Z</time>
      </trkpt>
      <trkpt lat="28.3774" lon="83.59356">
        <ele>1535.36</ele>
        <time>2013-10-26T10:15:07Z</time>
      </trkpt>
      <trkpt lat="28.3774" lon="83.59356">
        <ele>1535.36</ele>
        <time>2013-10-26T10:15:30Z</time>
      </trkpt>
      <trkpt lat="28.3774" lon="83.59356">
        <ele>1534.88</ele>
        <time>2013-10-26T10:15:54Z</time>
      </trkpt>
      <trkpt lat="28.3774" lon="83.59355">
        <ele>1534.88</ele>
        <time>2013-10-26T10:16:12Z</time>
      </trkpt>
      <trkpt lat="28.37742" lon="83.59356">
        <ele>1534.88</ele>
        <time>2013-10-26T10:16:28Z</time>
      </trkpt>
      <trkpt lat="28.37742" lon="83.59356">
        <ele>1534.88</ele>
        <time>2013-10-26T10:16:38Z</time>
      </trkpt>
      <trkpt lat="28.37742" lon="83.59357">
        <ele>1534.88</ele>
        <time>2013-10-26T10:16:55Z</time>
      </trkpt>
      <trkpt lat="28.37741" lon="83.59355">
        <ele>1534.88</ele>
        <time>2013-10-26T10:17:08Z</time>
      </trkpt>
      <trkpt lat="28.37741" lon="83.59355">
        <ele>1535.36</ele>
        <time>2013-10-26T10:17:27Z</time>
      </trkpt>
      <trkpt lat="28.37744" lon="83.59359">
        <ele>1534.88</ele>
        <time>2013-10-26T10:17:42Z</time>
      </trkpt>
      <trkpt lat="28.37742" lon="83.59356">
        <ele>1535.36</ele>
        <time>2013-10-26T10:18:00Z</time>
      </trkpt>
      <trkpt lat="28.37741" lon="83.59357">
        <ele>1535.84</ele>
        <time>2013-10-26T10:18:15Z</time>
      </trkpt>
      <trkpt lat="28.3774" lon="83.59356">
        <ele>1535.84</ele>
        <time>2013-10-26T10:18:43Z</time>
      </trkpt>
      <trkpt lat="28.37739" lon="83.59356">
        <ele>1535.36</ele>
        <time>2013-10-26T10:18:54Z</time>
      </trkpt>
      <trkpt lat="28.37742" lon="83.59358">
        <ele>1535.36</ele>
        <time>2013-10-26T10:19:08Z</time>
      </trkpt>
      <trkpt lat="28.37744" lon="83.59358">
        <ele>1535.36</ele>
        <time>2013-10-26T10:19:37Z</time>
      </trkpt>
      <trkpt lat="28.37744" lon="83.59358">
        <ele>1535.84</ele>
        <time>2013-10-26T10:20:06Z</time>
      </trkpt>
      <trkpt lat="28.37744" lon="83.59357">
        <ele>1535.84</ele>
        <time>2013-10-26T10:20:28Z</time>
      </trkpt>
      <trkpt lat="28.37744" lon="83.59357">
        <ele>1535.84</ele>
        <time>2013-10-26T10:20:52Z</time>
      </trkpt>
      <trkpt lat="28.37743" lon="83.59357">
        <ele>1535.36</ele>
        <time>2013-10-26T10:21:22Z</time>
      </trkpt>
      <trkpt lat="28.37742" lon="83.59355">
        <ele>1536.32</ele>
        <time>2013-10-26T10:21:33Z</time>
      </trkpt>
      <trkpt lat="28.37742" lon="83.59356">
        <ele>1536.32</ele>
        <time>2013-10-26T10:22:01Z</time>
      </trkpt>
      <trkpt lat="28.37742" lon="83.59357">
        <ele>1535.84</ele>
        <time>2013-10-26T10:22:28Z</time>
      </trkpt>
      <trkpt lat="28.37742" lon="83.59357">
        <ele>1541.61</ele>
        <time>2013-10-26T10:22:47Z</time>
      </trkpt>
      <trkpt lat="28.37742" lon="83.59357">
        <ele>1536.8</ele>
        <time>2013-10-26T10:22:48Z</time>
      </trkpt>
      <trkpt lat="28.37741" lon="83.59357">
        <ele>1536.32</ele>
        <time>2013-10-26T10:23:12Z</time>
      </trkpt>
      <trkpt lat="28.37741" lon="83.59357">
        <ele>1535.84</ele>
        <time>2013-10-26T10:23:42Z</time>
      </trkpt>
      <trkpt lat="28.37741" lon="83.59358">
        <ele>1535.84</ele>
        <time>2013-10-26T10:24:14Z</time>
      </trkpt>
      <trkpt lat="28.37741" lon="83.59358">
        <ele>1535.84</ele>
        <time>2013-10-26T10:24:46Z</time>
      </trkpt>
      <trkpt lat="28.37741" lon="83.59358">
        <ele>1535.84</ele>
        <time>2013-10-26T10:25:17Z</time>
      </trkpt>
      <trkpt lat="28.3774" lon="83.59358">
        <ele>1536.32</ele>
        <time>2013-10-26T10:25:40Z</time>
      </trkpt>
      <trkpt lat="28.3774" lon="83.59358">
        <ele>1536.32</ele>
        <time>2013-10-26T10:26:03Z</time>
      </trkpt>
      <trkpt lat="28.3774" lon="83.59358">
        <ele>1536.32</ele>
        <time>2013-10-26T10:26:28Z</time>
      </trkpt>
      <trkpt lat="28.3774" lon="83.59357">
        <ele>1536.32</ele>
        <time>2013-10-26T10:26:58Z</time>
      </trkpt>
      <trkpt lat="28.3774" lon="83.59356">
        <ele>1537.29</ele>
        <time>2013-10-26T10:27:26Z</time>
      </trkpt>
      <trkpt lat="28.3774" lon="83.59356">
        <ele>1536.32</ele>
        <time>2013-10-26T10:27:52Z</time>
      </trkpt>
      <trkpt lat="28.3774" lon="83.59356">
        <ele>1536.32</ele>
        <time>2013-10-26T10:28:21Z</time>
      </trkpt>
      <trkpt lat="28.3774" lon="83.59356">
        <ele>1536.8</ele>
        <time>2013-10-26T10:28:53Z</time>
      </trkpt>
      <trkpt lat="28.37741" lon="83.59356">
        <ele>1536.8</ele>
        <time>2013-10-26T10:29:14Z</time>
      </trkpt>
      <trkpt lat="28.37741" lon="83.59356">
        <ele>1536.8</ele>
        <time>2013-10-26T10:29:40Z</time>
      </trkpt>
      <trkpt lat="28.3774" lon="83.59356">
        <ele>1536.8</ele>
        <time>2013-10-26T10:30:11Z</time>
      </trkpt>
      <trkpt lat="28.3774" lon="83.59356">
        <ele>1536.8</ele>
        <time>2013-10-26T10:30:37Z</time>
      </trkpt>
      <trkpt lat="28.3774" lon="83.59358">
        <ele>1536.8</ele>
        <time>2013-10-26T10:31:00Z</time>
      </trkpt>
    </trkseg>
  </trk>
</gpx>